<?xml version='1.0' encoding='UTF-8'?><gpx version="1.1" creator="JPX - https://github.com/jenetics/jpx" xmlns="http://www.topografix.com/GPX/1/1"><trk><trkseg><trkpt lat="43.7576233" lon="11.1807209"><ele>44.333333333333336</ele><time>2026-04-27T10:42:55.476Z</time></trkpt><trkpt lat="43.7576347" lon="11.1806137"><ele>43.66666666666667</ele><time>2026-04-27T10:43:11.394Z</time></trkpt><trkpt lat="43.7575573" lon="11.1802189"><ele>43.0</ele><time>2026-04-27T10:43:20.646Z</time></trkpt><trkpt lat="43.7575044" lon="11.1799116"><ele>43.0</ele><time>2026-04-27T10:43:21.623Z</time></trkpt><trkpt lat="43.7575027" lon="11.1798118"><ele>43.0</ele><time>2026-04-27T10:43:23.689Z</time></trkpt><trkpt lat="43.7575661" lon="11.1797722"><ele>43.0</ele><time>2026-04-27T10:43:29.723Z</time></trkpt><trkpt lat="43.7576646" lon="11.1805575"><ele>43.333333333333336</ele><time>2026-04-27T10:43:31.623Z</time></trkpt><trkpt lat="43.7576992" lon="11.180786"><ele>43.66666666666667</ele><time>2026-04-27T10:43:32.709Z</time></trkpt><trkpt lat="43.7577514" lon="11.180841"><ele>44.0</ele><time>2026-04-27T10:43:35.643Z</time></trkpt><trkpt lat="43.7578114" lon="11.1808677"><ele>44.333333333333336</ele><time>2026-04-27T10:43:39.665Z</time></trkpt><trkpt lat="43.7578687" lon="11.1809071"><ele>44.666666666666664</ele><time>2026-04-27T10:43:45.426Z</time></trkpt><trkpt lat="43.7578932" lon="11.1810001"><ele>45.0</ele><time>2026-04-27T10:43:49.446Z</time></trkpt><trkpt lat="43.7578856" lon="11.1811007"><ele>45.0</ele><time>2026-04-27T10:43:53.467Z</time></trkpt><trkpt lat="43.7578852" lon="11.1811893"><ele>45.0</ele><time>2026-04-27T10:43:57.488Z</time></trkpt><trkpt lat="43.7578855" lon="11.1812924"><ele>45.0</ele><time>2026-04-27T10:44:04.496Z</time></trkpt><trkpt lat="43.7578644" lon="11.1813955"><ele>45.0</ele><time>2026-04-27T10:44:08.466Z</time></trkpt><trkpt lat="43.7578164" lon="11.1814836"><ele>45.0</ele><time>2026-04-27T10:44:12.487Z</time></trkpt><trkpt lat="43.7577809" lon="11.1815663"><ele>45.0</ele><time>2026-04-27T10:44:17.486Z</time></trkpt><trkpt lat="43.7577536" lon="11.1816563"><ele>45.0</ele><time>2026-04-27T10:44:25.523Z</time></trkpt><trkpt lat="43.7577195" lon="11.1817427"><ele>44.714285714285715</ele><time>2026-04-27T10:44:29.437Z</time></trkpt><trkpt lat="43.7576841" lon="11.1818187"><ele>44.42857142857143</ele><time>2026-04-27T10:44:39.435Z</time></trkpt><trkpt lat="43.757627" lon="11.1818747"><ele>44.142857142857146</ele><time>2026-04-27T10:44:43.457Z</time></trkpt><trkpt lat="43.7575997" lon="11.18197"><ele>43.85714285714286</ele><time>2026-04-27T10:44:46.422Z</time></trkpt><trkpt lat="43.7575821" lon="11.1820584"><ele>43.57142857142857</ele><time>2026-04-27T10:44:52.479Z</time></trkpt><trkpt lat="43.7575322" lon="11.1821213"><ele>43.28571428571429</ele><time>2026-04-27T10:44:56.501Z</time></trkpt><trkpt lat="43.7575367" lon="11.1822114"><ele>43.0</ele><time>2026-04-27T10:45:00.522Z</time></trkpt><trkpt lat="43.7575123" lon="11.1823021"><ele>43.42857142857143</ele><time>2026-04-27T10:45:06.435Z</time></trkpt><trkpt lat="43.7574609" lon="11.1823689"><ele>43.85714285714286</ele><time>2026-04-27T10:45:17.452Z</time></trkpt><trkpt lat="43.7574175" lon="11.1824559"><ele>44.28571428571429</ele><time>2026-04-27T10:45:22.433Z</time></trkpt><trkpt lat="43.7573765" lon="11.1825442"><ele>44.714285714285715</ele><time>2026-04-27T10:45:27.479Z</time></trkpt><trkpt lat="43.7573367" lon="11.1826241"><ele>45.14285714285714</ele><time>2026-04-27T10:45:33.456Z</time></trkpt><trkpt lat="43.7572933" lon="11.1827126"><ele>45.57142857142858</ele><time>2026-04-27T10:45:38.072Z</time></trkpt><trkpt lat="43.7572694" lon="11.1828063"><ele>46.0</ele><time>2026-04-27T10:45:43.456Z</time></trkpt><trkpt lat="43.7572241" lon="11.1828911"><ele>46.0</ele><time>2026-04-27T10:45:50.534Z</time></trkpt><trkpt lat="43.7571712" lon="11.1829612"><ele>46.0</ele><time>2026-04-27T10:45:55.521Z</time></trkpt><trkpt lat="43.7571158" lon="11.1830228"><ele>46.0</ele><time>2026-04-27T10:46:00.303Z</time></trkpt><trkpt lat="43.7570741" lon="11.1830898"><ele>46.0</ele><time>2026-04-27T10:46:04.542Z</time></trkpt><trkpt lat="43.7570355" lon="11.1831793"><ele>46.0</ele><time>2026-04-27T10:46:10.52Z</time></trkpt><trkpt lat="43.7570193" lon="11.1832763"><ele>46.0</ele><time>2026-04-27T10:46:16.498Z</time></trkpt><trkpt lat="43.756991" lon="11.1833564"><ele>46.0</ele><time>2026-04-27T10:46:22.435Z</time></trkpt><trkpt lat="43.7569563" lon="11.1834322"><ele>46.285714285714285</ele><time>2026-04-27T10:46:27.477Z</time></trkpt><trkpt lat="43.7569204" lon="11.1835233"><ele>46.57142857142857</ele><time>2026-04-27T10:46:32.476Z</time></trkpt><trkpt lat="43.7568864" lon="11.1836046"><ele>46.857142857142854</ele><time>2026-04-27T10:46:37.374Z</time></trkpt><trkpt lat="43.7568538" lon="11.1836918"><ele>47.14285714285714</ele><time>2026-04-27T10:46:43.453Z</time></trkpt><trkpt lat="43.7568247" lon="11.1837824"><ele>47.42857142857143</ele><time>2026-04-27T10:46:50.519Z</time></trkpt><trkpt lat="43.7567966" lon="11.1838727"><ele>47.71428571428571</ele><time>2026-04-27T10:46:55.412Z</time></trkpt><trkpt lat="43.7567643" lon="11.18396"><ele>48.0</ele><time>2026-04-27T10:47:00.519Z</time></trkpt><trkpt lat="43.7567321" lon="11.1840372"><ele>47.99999999999999</ele><time>2026-04-27T10:47:05.519Z</time></trkpt><trkpt lat="43.7566975" lon="11.1841123"><ele>48.0</ele><time>2026-04-27T10:47:10.518Z</time></trkpt><trkpt lat="43.7566416" lon="11.1841745"><ele>48.0</ele><time>2026-04-27T10:47:17.474Z</time></trkpt><trkpt lat="43.7565897" lon="11.1842356"><ele>48.0</ele><time>2026-04-27T10:47:23.447Z</time></trkpt><trkpt lat="43.7565548" lon="11.184309"><ele>48.0</ele><time>2026-04-27T10:47:26.492Z</time></trkpt><trkpt lat="43.7565201" lon="11.184384"><ele>47.99999999999999</ele><time>2026-04-27T10:47:32.469Z</time></trkpt><trkpt lat="43.7564752" lon="11.1844509"><ele>48.0</ele><time>2026-04-27T10:47:38.494Z</time></trkpt><trkpt lat="43.7564307" lon="11.1845364"><ele>47.99999999999999</ele><time>2026-04-27T10:47:43.456Z</time></trkpt><trkpt lat="43.7563965" lon="11.1846158"><ele>48.0</ele><time>2026-04-27T10:47:47.468Z</time></trkpt><trkpt lat="43.7563636" lon="11.1847012"><ele>48.0</ele><time>2026-04-27T10:47:52.468Z</time></trkpt><trkpt lat="43.7563264" lon="11.1847817"><ele>48.0</ele><time>2026-04-27T10:47:57.468Z</time></trkpt><trkpt lat="43.7562957" lon="11.1848699"><ele>48.0</ele><time>2026-04-27T10:48:01.456Z</time></trkpt><trkpt lat="43.7562561" lon="11.184974"><ele>47.99999999999999</ele><time>2026-04-27T10:48:05.895Z</time></trkpt><trkpt lat="43.7562149" lon="11.1850656"><ele>48.0</ele><time>2026-04-27T10:48:11.472Z</time></trkpt><trkpt lat="43.7561803" lon="11.1851401"><ele>47.857142857142854</ele><time>2026-04-27T10:48:16.489Z</time></trkpt><trkpt lat="43.7561468" lon="11.1852309"><ele>47.714285714285715</ele><time>2026-04-27T10:48:22.556Z</time></trkpt><trkpt lat="43.7561074" lon="11.185316"><ele>47.57142857142857</ele><time>2026-04-27T10:48:28.111Z</time></trkpt><trkpt lat="43.7560634" lon="11.1853853"><ele>47.42857142857143</ele><time>2026-04-27T10:48:33.446Z</time></trkpt><trkpt lat="43.7560232" lon="11.1854741"><ele>47.285714285714285</ele><time>2026-04-27T10:48:38.971Z</time></trkpt><trkpt lat="43.755983" lon="11.1855436"><ele>47.14285714285714</ele><time>2026-04-27T10:48:43.557Z</time></trkpt><trkpt lat="43.7559436" lon="11.1856227"><ele>47.0</ele><time>2026-04-27T10:48:49.036Z</time></trkpt><trkpt lat="43.7559058" lon="11.1857115"><ele>47.0</ele><time>2026-04-27T10:48:54.531Z</time></trkpt><trkpt lat="43.7558675" lon="11.1857869"><ele>47.0</ele><time>2026-04-27T10:48:59.531Z</time></trkpt><trkpt lat="43.7558261" lon="11.1858683"><ele>47.0</ele><time>2026-04-27T10:49:04.532Z</time></trkpt><trkpt lat="43.7557857" lon="11.1859569"><ele>47.0</ele><time>2026-04-27T10:49:10.509Z</time></trkpt><trkpt lat="43.7557429" lon="11.1860374"><ele>47.0</ele><time>2026-04-27T10:49:16.487Z</time></trkpt><trkpt lat="43.7556781" lon="11.1860781"><ele>47.0</ele><time>2026-04-27T10:49:25.513Z</time></trkpt><trkpt lat="43.7556143" lon="11.186078"><ele>47.0</ele><time>2026-04-27T10:49:28.378Z</time></trkpt><trkpt lat="43.7555614" lon="11.1860104"><ele>47.0</ele><time>2026-04-27T10:49:32.536Z</time></trkpt><trkpt lat="43.7555183" lon="11.1859164"><ele>47.0</ele><time>2026-04-27T10:49:36.486Z</time></trkpt><trkpt lat="43.7554653" lon="11.1858594"><ele>47.0</ele><time>2026-04-27T10:49:43.442Z</time></trkpt><trkpt lat="43.7553972" lon="11.1858278"><ele>47.0</ele><time>2026-04-27T10:49:48.442Z</time></trkpt><trkpt lat="43.7553308" lon="11.1858018"><ele>47.0</ele><time>2026-04-27T10:49:53.441Z</time></trkpt><trkpt lat="43.7552682" lon="11.1857585"><ele>47.0</ele><time>2026-04-27T10:49:58.394Z</time></trkpt><trkpt lat="43.7552177" lon="11.1856904"><ele>47.0</ele><time>2026-04-27T10:50:02.462Z</time></trkpt><trkpt lat="43.7551506" lon="11.1856531"><ele>47.0</ele><time>2026-04-27T10:50:07.462Z</time></trkpt><trkpt lat="43.7550818" lon="11.1856446"><ele>47.0</ele><time>2026-04-27T10:50:11.536Z</time></trkpt><trkpt lat="43.7550197" lon="11.1856297"><ele>47.0</ele><time>2026-04-27T10:50:15.475Z</time></trkpt><trkpt lat="43.7549622" lon="11.1855695"><ele>47.0</ele><time>2026-04-27T10:50:20.515Z</time></trkpt><trkpt lat="43.7549032" lon="11.185518"><ele>47.0</ele><time>2026-04-27T10:50:25.505Z</time></trkpt><trkpt lat="43.7548397" lon="11.1854685"><ele>47.0</ele><time>2026-04-27T10:50:30.794Z</time></trkpt><trkpt lat="43.7547758" lon="11.1854108"><ele>47.0</ele><time>2026-04-27T10:50:36.294Z</time></trkpt><trkpt lat="43.7547054" lon="11.1853689"><ele>47.0</ele><time>2026-04-27T10:50:42.458Z</time></trkpt><trkpt lat="43.7546466" lon="11.1853035"><ele>47.0</ele><time>2026-04-27T10:50:46.481Z</time></trkpt><trkpt lat="43.7545925" lon="11.1852365"><ele>47.0</ele><time>2026-04-27T10:50:51.48Z</time></trkpt><trkpt lat="43.7545325" lon="11.1851824"><ele>47.0</ele><time>2026-04-27T10:50:57.46Z</time></trkpt><trkpt lat="43.754469" lon="11.1851728"><ele>47.0</ele><time>2026-04-27T10:51:03.438Z</time></trkpt><trkpt lat="43.7543985" lon="11.1851816"><ele>47.0</ele><time>2026-04-27T10:51:09.421Z</time></trkpt><trkpt lat="43.7543429" lon="11.1851336"><ele>47.0</ele><time>2026-04-27T10:51:14.422Z</time></trkpt><trkpt lat="43.7542898" lon="11.1850803"><ele>47.14285714285714</ele><time>2026-04-27T10:51:19.476Z</time></trkpt><trkpt lat="43.7542301" lon="11.1850175"><ele>47.285714285714285</ele><time>2026-04-27T10:51:24.422Z</time></trkpt><trkpt lat="43.7541759" lon="11.1849501"><ele>47.42857142857143</ele><time>2026-04-27T10:51:28.443Z</time></trkpt><trkpt lat="43.7541118" lon="11.1848846"><ele>47.57142857142857</ele><time>2026-04-27T10:51:32.464Z</time></trkpt><trkpt lat="43.7540462" lon="11.1848254"><ele>47.714285714285715</ele><time>2026-04-27T10:51:36.486Z</time></trkpt><trkpt lat="43.7539823" lon="11.1847959"><ele>47.857142857142854</ele><time>2026-04-27T10:51:43.443Z</time></trkpt><trkpt lat="43.7539203" lon="11.1847374"><ele>48.0</ele><time>2026-04-27T10:51:49.422Z</time></trkpt><trkpt lat="43.7538575" lon="11.1846714"><ele>48.0</ele><time>2026-04-27T10:51:54.423Z</time></trkpt><trkpt lat="43.7537944" lon="11.1846075"><ele>48.0</ele><time>2026-04-27T10:51:58.445Z</time></trkpt><trkpt lat="43.7537287" lon="11.1845461"><ele>48.0</ele><time>2026-04-27T10:52:02.468Z</time></trkpt><trkpt lat="43.7536607" lon="11.1845369"><ele>48.0</ele><time>2026-04-27T10:52:08.395Z</time></trkpt><trkpt lat="43.7535991" lon="11.1845787"><ele>48.0</ele><time>2026-04-27T10:52:13.448Z</time></trkpt><trkpt lat="43.7535236" lon="11.1846236"><ele>48.0</ele><time>2026-04-27T10:52:17.47Z</time></trkpt><trkpt lat="43.7534581" lon="11.1846837"><ele>47.857142857142854</ele><time>2026-04-27T10:52:21.493Z</time></trkpt><trkpt lat="43.7534036" lon="11.18474"><ele>47.714285714285715</ele><time>2026-04-27T10:52:25.421Z</time></trkpt><trkpt lat="43.753348" lon="11.1847989"><ele>47.57142857142857</ele><time>2026-04-27T10:52:32.472Z</time></trkpt><trkpt lat="43.7533039" lon="11.1848729"><ele>47.42857142857143</ele><time>2026-04-27T10:52:37.473Z</time></trkpt><trkpt lat="43.7532586" lon="11.1849541"><ele>47.285714285714285</ele><time>2026-04-27T10:52:41.494Z</time></trkpt><trkpt lat="43.7532266" lon="11.1850398"><ele>47.14285714285714</ele><time>2026-04-27T10:52:46.421Z</time></trkpt><trkpt lat="43.7532687" lon="11.1851171"><ele>47.0</ele><time>2026-04-27T10:52:55.421Z</time></trkpt><trkpt lat="43.7533268" lon="11.1851825"><ele>47.0</ele><time>2026-04-27T10:52:59.431Z</time></trkpt><trkpt lat="43.7533793" lon="11.1852469"><ele>47.0</ele><time>2026-04-27T10:53:03.391Z</time></trkpt><trkpt lat="43.7534229" lon="11.185312"><ele>47.0</ele><time>2026-04-27T10:53:08.476Z</time></trkpt><trkpt lat="43.7534787" lon="11.1853681"><ele>47.0</ele><time>2026-04-27T10:53:12.477Z</time></trkpt><trkpt lat="43.753535" lon="11.1854227"><ele>47.0</ele><time>2026-04-27T10:53:15.421Z</time></trkpt><trkpt lat="43.7535943" lon="11.1854822"><ele>47.0</ele><time>2026-04-27T10:53:19.434Z</time></trkpt><trkpt lat="43.7536501" lon="11.1855394"><ele>47.0</ele><time>2026-04-27T10:53:23.455Z</time></trkpt><trkpt lat="43.753702" lon="11.1855932"><ele>47.0</ele><time>2026-04-27T10:53:27.479Z</time></trkpt><trkpt lat="43.7537607" lon="11.1856489"><ele>47.0</ele><time>2026-04-27T10:53:32.478Z</time></trkpt><trkpt lat="43.7538116" lon="11.1857021"><ele>47.0</ele><time>2026-04-27T10:53:37.491Z</time></trkpt><trkpt lat="43.7538736" lon="11.185759"><ele>47.0</ele><time>2026-04-27T10:53:41.817Z</time></trkpt><trkpt lat="43.7539323" lon="11.1858141"><ele>47.0</ele><time>2026-04-27T10:53:46.42Z</time></trkpt><trkpt lat="43.753992" lon="11.1858689"><ele>47.0</ele><time>2026-04-27T10:53:51.42Z</time></trkpt><trkpt lat="43.754044" lon="11.1859223"><ele>47.0</ele><time>2026-04-27T10:53:55.42Z</time></trkpt><trkpt lat="43.754104" lon="11.1859833"><ele>47.0</ele><time>2026-04-27T10:54:00.455Z</time></trkpt><trkpt lat="43.7541711" lon="11.1860427"><ele>47.0</ele><time>2026-04-27T10:54:05.42Z</time></trkpt><trkpt lat="43.7542265" lon="11.1860993"><ele>47.0</ele><time>2026-04-27T10:54:09.415Z</time></trkpt><trkpt lat="43.7542949" lon="11.1861564"><ele>47.0</ele><time>2026-04-27T10:54:13.463Z</time></trkpt><trkpt lat="43.7543507" lon="11.186209"><ele>47.0</ele><time>2026-04-27T10:54:17.433Z</time></trkpt><trkpt lat="43.7544093" lon="11.1862569"><ele>47.0</ele><time>2026-04-27T10:54:22.434Z</time></trkpt><trkpt lat="43.754463" lon="11.1863062"><ele>47.0</ele><time>2026-04-27T10:54:28.472Z</time></trkpt><trkpt lat="43.754518" lon="11.1863624"><ele>47.0</ele><time>2026-04-27T10:54:35.422Z</time></trkpt><trkpt lat="43.754568" lon="11.1864166"><ele>47.0</ele><time>2026-04-27T10:54:40.532Z</time></trkpt><trkpt lat="43.7546252" lon="11.186472"><ele>47.0</ele><time>2026-04-27T10:54:45.414Z</time></trkpt><trkpt lat="43.754682" lon="11.1865179"><ele>47.0</ele><time>2026-04-27T10:54:50.37Z</time></trkpt><trkpt lat="43.7547499" lon="11.1865676"><ele>47.0</ele><time>2026-04-27T10:54:55.532Z</time></trkpt><trkpt lat="43.7547951" lon="11.1866449"><ele>47.0</ele><time>2026-04-27T10:55:01.511Z</time></trkpt><trkpt lat="43.7548576" lon="11.1866894"><ele>47.0</ele><time>2026-04-27T10:55:06.418Z</time></trkpt><trkpt lat="43.7549219" lon="11.1867473"><ele>47.0</ele><time>2026-04-27T10:55:11.513Z</time></trkpt><trkpt lat="43.7549834" lon="11.1868051"><ele>47.0</ele><time>2026-04-27T10:55:16.512Z</time></trkpt><trkpt lat="43.7550426" lon="11.1868507"><ele>47.0</ele><time>2026-04-27T10:55:20.353Z</time></trkpt><trkpt lat="43.7551086" lon="11.1869023"><ele>47.0</ele><time>2026-04-27T10:55:25.534Z</time></trkpt><trkpt lat="43.7551631" lon="11.1869498"><ele>47.0</ele><time>2026-04-27T10:55:30.373Z</time></trkpt><trkpt lat="43.7552234" lon="11.1869881"><ele>47.0</ele><time>2026-04-27T10:55:35.534Z</time></trkpt><trkpt lat="43.7552183" lon="11.1870923"><ele>47.0</ele><time>2026-04-27T10:55:39.447Z</time></trkpt><trkpt lat="43.7551746" lon="11.1871734"><ele>47.14285714285714</ele><time>2026-04-27T10:55:43.47Z</time></trkpt><trkpt lat="43.7551542" lon="11.1872662"><ele>47.285714285714285</ele><time>2026-04-27T10:55:48.393Z</time></trkpt><trkpt lat="43.7551193" lon="11.1873389"><ele>47.42857142857143</ele><time>2026-04-27T10:55:53.47Z</time></trkpt><trkpt lat="43.7550764" lon="11.1874274"><ele>47.57142857142857</ele><time>2026-04-27T10:55:59.449Z</time></trkpt><trkpt lat="43.7550401" lon="11.1875164"><ele>47.714285714285715</ele><time>2026-04-27T10:56:04.114Z</time></trkpt><trkpt lat="43.7549984" lon="11.1875826"><ele>47.857142857142854</ele><time>2026-04-27T10:56:08.512Z</time></trkpt><trkpt lat="43.7549381" lon="11.1876233"><ele>48.0</ele><time>2026-04-27T10:56:16.514Z</time></trkpt><trkpt lat="43.754878" lon="11.187574"><ele>47.99999999999999</ele><time>2026-04-27T10:56:20.536Z</time></trkpt><trkpt lat="43.7548202" lon="11.1875296"><ele>48.0</ele><time>2026-04-27T10:56:23.511Z</time></trkpt><trkpt lat="43.7547519" lon="11.1874827"><ele>48.0</ele><time>2026-04-27T10:56:27.415Z</time></trkpt><trkpt lat="43.7546873" lon="11.1874417"><ele>48.0</ele><time>2026-04-27T10:56:31.791Z</time></trkpt><trkpt lat="43.754631" lon="11.1873971"><ele>48.0</ele><time>2026-04-27T10:56:37.433Z</time></trkpt><trkpt lat="43.7545781" lon="11.1873468"><ele>47.99999999999999</ele><time>2026-04-27T10:56:42.491Z</time></trkpt><trkpt lat="43.7545231" lon="11.1872993"><ele>48.0</ele><time>2026-04-27T10:56:47.553Z</time></trkpt><trkpt lat="43.7544634" lon="11.1872435"><ele>47.99999999999999</ele><time>2026-04-27T10:56:52.414Z</time></trkpt><trkpt lat="43.7544159" lon="11.1871809"><ele>48.0</ele><time>2026-04-27T10:56:57.492Z</time></trkpt><trkpt lat="43.7543529" lon="11.18713"><ele>48.0</ele><time>2026-04-27T10:57:02.491Z</time></trkpt><trkpt lat="43.7542895" lon="11.1870854"><ele>48.0</ele><time>2026-04-27T10:57:07.491Z</time></trkpt><trkpt lat="43.7542283" lon="11.1870257"><ele>48.0</ele><time>2026-04-27T10:57:12.491Z</time></trkpt><trkpt lat="43.7541681" lon="11.1869733"><ele>47.99999999999999</ele><time>2026-04-27T10:57:17.434Z</time></trkpt><trkpt lat="43.7541138" lon="11.1869262"><ele>48.0</ele><time>2026-04-27T10:57:21.513Z</time></trkpt><trkpt lat="43.7540633" lon="11.1868741"><ele>47.99999999999999</ele><time>2026-04-27T10:57:25.532Z</time></trkpt><trkpt lat="43.7540013" lon="11.1868418"><ele>48.0</ele><time>2026-04-27T10:57:30.373Z</time></trkpt><trkpt lat="43.7539348" lon="11.186814"><ele>48.0</ele><time>2026-04-27T10:57:35.733Z</time></trkpt><trkpt lat="43.7538745" lon="11.186744"><ele>48.0</ele><time>2026-04-27T10:57:40.557Z</time></trkpt><trkpt lat="43.7538204" lon="11.186688"><ele>48.0</ele><time>2026-04-27T10:57:45.451Z</time></trkpt><trkpt lat="43.753755" lon="11.1866364"><ele>47.99999999999999</ele><time>2026-04-27T10:57:50.352Z</time></trkpt><trkpt lat="43.753694" lon="11.1865713"><ele>48.0</ele><time>2026-04-27T10:57:55.533Z</time></trkpt><trkpt lat="43.7536266" lon="11.1865302"><ele>47.857142857142854</ele><time>2026-04-27T10:58:00.49Z</time></trkpt><trkpt lat="43.7535718" lon="11.1864825"><ele>47.714285714285715</ele><time>2026-04-27T10:58:05.431Z</time></trkpt><trkpt lat="43.7535057" lon="11.1864218"><ele>47.57142857142857</ele><time>2026-04-27T10:58:10.534Z</time></trkpt><trkpt lat="43.7534452" lon="11.1863728"><ele>47.42857142857143</ele><time>2026-04-27T10:58:14.446Z</time></trkpt><trkpt lat="43.7533833" lon="11.1863195"><ele>47.285714285714285</ele><time>2026-04-27T10:58:19.373Z</time></trkpt><trkpt lat="43.7533268" lon="11.1862725"><ele>47.14285714285714</ele><time>2026-04-27T10:58:24.447Z</time></trkpt><trkpt lat="43.7532712" lon="11.1862272"><ele>47.0</ele><time>2026-04-27T10:58:29.447Z</time></trkpt><trkpt lat="43.7532116" lon="11.186197"><ele>47.0</ele><time>2026-04-27T10:58:34.452Z</time></trkpt><trkpt lat="43.7531498" lon="11.1861766"><ele>47.0</ele><time>2026-04-27T10:58:40.39Z</time></trkpt><trkpt lat="43.7530847" lon="11.1861965"><ele>47.0</ele><time>2026-04-27T10:58:50.424Z</time></trkpt><trkpt lat="43.7530762" lon="11.1863026"><ele>47.0</ele><time>2026-04-27T10:58:55.532Z</time></trkpt><trkpt lat="43.7530408" lon="11.1863877"><ele>47.0</ele><time>2026-04-27T10:59:00.056Z</time></trkpt><trkpt lat="43.753008" lon="11.186466"><ele>47.0</ele><time>2026-04-27T10:59:05.372Z</time></trkpt><trkpt lat="43.7529722" lon="11.1865574"><ele>47.0</ele><time>2026-04-27T10:59:10.394Z</time></trkpt><trkpt lat="43.7529392" lon="11.1866632"><ele>47.0</ele><time>2026-04-27T10:59:14.445Z</time></trkpt><trkpt lat="43.752914" lon="11.1867452"><ele>47.0</ele><time>2026-04-27T10:59:18.356Z</time></trkpt><trkpt lat="43.7528697" lon="11.1868226"><ele>47.0</ele><time>2026-04-27T10:59:23.455Z</time></trkpt><trkpt lat="43.7527966" lon="11.1868372"><ele>47.0</ele><time>2026-04-27T10:59:28.692Z</time></trkpt><trkpt lat="43.7527136" lon="11.1868555"><ele>47.0</ele><time>2026-04-27T10:59:34.032Z</time></trkpt><trkpt lat="43.7526584" lon="11.1869148"><ele>47.0</ele><time>2026-04-27T10:59:37.156Z</time></trkpt><trkpt lat="43.7526006" lon="11.1869747"><ele>47.0</ele><time>2026-04-27T10:59:40.435Z</time></trkpt><trkpt lat="43.7525427" lon="11.1870495"><ele>47.0</ele><time>2026-04-27T10:59:46.51Z</time></trkpt><trkpt lat="43.7524936" lon="11.1871241"><ele>47.0</ele><time>2026-04-27T10:59:51.509Z</time></trkpt><trkpt lat="43.7524525" lon="11.1872038"><ele>47.0</ele><time>2026-04-27T10:59:57.489Z</time></trkpt><trkpt lat="43.752398" lon="11.1873074"><ele>47.0</ele><time>2026-04-27T11:00:04.444Z</time></trkpt><trkpt lat="43.7523594" lon="11.1873807"><ele>47.0</ele><time>2026-04-27T11:00:09.517Z</time></trkpt><trkpt lat="43.7523116" lon="11.1874481"><ele>47.0</ele><time>2026-04-27T11:00:14.518Z</time></trkpt><trkpt lat="43.7522817" lon="11.1875424"><ele>47.0</ele><time>2026-04-27T11:00:19.414Z</time></trkpt><trkpt lat="43.7522434" lon="11.1876143"><ele>47.0</ele><time>2026-04-27T11:00:23.467Z</time></trkpt><trkpt lat="43.7522079" lon="11.1876922"><ele>47.0</ele><time>2026-04-27T11:00:27.489Z</time></trkpt><trkpt lat="43.7522413" lon="11.1877676"><ele>47.0</ele><time>2026-04-27T11:00:32.416Z</time></trkpt><trkpt lat="43.7522884" lon="11.1878344"><ele>47.0</ele><time>2026-04-27T11:00:37.489Z</time></trkpt><trkpt lat="43.7523352" lon="11.1879129"><ele>47.0</ele><time>2026-04-27T11:00:42.49Z</time></trkpt><trkpt lat="43.7523691" lon="11.187988"><ele>47.0</ele><time>2026-04-27T11:00:48.431Z</time></trkpt><trkpt lat="43.7524053" lon="11.1880649"><ele>47.0</ele><time>2026-04-27T11:00:53.469Z</time></trkpt><trkpt lat="43.7524395" lon="11.1881383"><ele>47.0</ele><time>2026-04-27T11:00:58.453Z</time></trkpt><trkpt lat="43.7524803" lon="11.1882196"><ele>47.0</ele><time>2026-04-27T11:01:02.492Z</time></trkpt><trkpt lat="43.7525201" lon="11.1882955"><ele>47.0</ele><time>2026-04-27T11:01:05.428Z</time></trkpt><trkpt lat="43.7525593" lon="11.1883749"><ele>47.0</ele><time>2026-04-27T11:01:08.472Z</time></trkpt><trkpt lat="43.7525954" lon="11.1884506"><ele>47.0</ele><time>2026-04-27T11:01:11.414Z</time></trkpt><trkpt lat="43.7526387" lon="11.1885316"><ele>47.0</ele><time>2026-04-27T11:01:15.429Z</time></trkpt><trkpt lat="43.7526835" lon="11.1886183"><ele>47.0</ele><time>2026-04-27T11:01:19.45Z</time></trkpt><trkpt lat="43.7527287" lon="11.1886978"><ele>47.0</ele><time>2026-04-27T11:01:24.45Z</time></trkpt><trkpt lat="43.7527718" lon="11.1887769"><ele>47.0</ele><time>2026-04-27T11:01:30.429Z</time></trkpt><trkpt lat="43.7528101" lon="11.1888597"><ele>47.0</ele><time>2026-04-27T11:01:36.408Z</time></trkpt><trkpt lat="43.7528514" lon="11.1889338"><ele>47.0</ele><time>2026-04-27T11:01:41.756Z</time></trkpt><trkpt lat="43.7528951" lon="11.189022"><ele>47.0</ele><time>2026-04-27T11:01:47.091Z</time></trkpt><trkpt lat="43.7529308" lon="11.1890998"><ele>47.0</ele><time>2026-04-27T11:01:51.435Z</time></trkpt><trkpt lat="43.7529788" lon="11.1891938"><ele>47.0</ele><time>2026-04-27T11:01:56.757Z</time></trkpt><trkpt lat="43.7530152" lon="11.189266"><ele>47.285714285714285</ele><time>2026-04-27T11:02:01.01Z</time></trkpt><trkpt lat="43.7530601" lon="11.1893532"><ele>47.57142857142857</ele><time>2026-04-27T11:02:06.297Z</time></trkpt><trkpt lat="43.7531035" lon="11.18943"><ele>47.85714285714286</ele><time>2026-04-27T11:02:11.514Z</time></trkpt><trkpt lat="43.7531488" lon="11.1895212"><ele>48.14285714285714</ele><time>2026-04-27T11:02:16.515Z</time></trkpt><trkpt lat="43.7531931" lon="11.1896032"><ele>48.42857142857143</ele><time>2026-04-27T11:02:20.427Z</time></trkpt><trkpt lat="43.7532316" lon="11.1896765"><ele>48.714285714285715</ele><time>2026-04-27T11:02:24.448Z</time></trkpt><trkpt lat="43.7532709" lon="11.1897602"><ele>49.0</ele><time>2026-04-27T11:02:28.47Z</time></trkpt><trkpt lat="43.7533079" lon="11.1898342"><ele>49.0</ele><time>2026-04-27T11:02:32.491Z</time></trkpt><trkpt lat="43.7533494" lon="11.1899026"><ele>49.0</ele><time>2026-04-27T11:02:37.49Z</time></trkpt><trkpt lat="43.7533902" lon="11.1899848"><ele>49.0</ele><time>2026-04-27T11:02:43.468Z</time></trkpt><trkpt lat="43.7534356" lon="11.1900582"><ele>49.0</ele><time>2026-04-27T11:02:48.468Z</time></trkpt><trkpt lat="43.7534729" lon="11.1901337"><ele>49.0</ele><time>2026-04-27T11:02:53.467Z</time></trkpt><trkpt lat="43.7535083" lon="11.1902058"><ele>49.0</ele><time>2026-04-27T11:02:58.495Z</time></trkpt><trkpt lat="43.7535745" lon="11.1902347"><ele>49.0</ele><time>2026-04-27T11:03:06.51Z</time></trkpt><trkpt lat="43.7536068" lon="11.1903269"><ele>48.714285714285715</ele><time>2026-04-27T11:03:10.531Z</time></trkpt><trkpt lat="43.7536465" lon="11.1904147"><ele>48.42857142857143</ele><time>2026-04-27T11:03:15.53Z</time></trkpt><trkpt lat="43.7536835" lon="11.1904969"><ele>48.14285714285714</ele><time>2026-04-27T11:03:19.442Z</time></trkpt><trkpt lat="43.7537345" lon="11.1905588"><ele>47.85714285714286</ele><time>2026-04-27T11:03:23.463Z</time></trkpt><trkpt lat="43.753799" lon="11.1905619"><ele>47.57142857142857</ele><time>2026-04-27T11:03:30.528Z</time></trkpt><trkpt lat="43.7538658" lon="11.1905116"><ele>47.285714285714285</ele><time>2026-04-27T11:03:35.373Z</time></trkpt><trkpt lat="43.7539243" lon="11.1904468"><ele>47.0</ele><time>2026-04-27T11:03:39.44Z</time></trkpt><trkpt lat="43.7539793" lon="11.1903984"><ele>47.0</ele><time>2026-04-27T11:03:43.462Z</time></trkpt><trkpt lat="43.7540345" lon="11.1903382"><ele>47.0</ele><time>2026-04-27T11:03:48.393Z</time></trkpt><trkpt lat="43.7540927" lon="11.1902808"><ele>47.0</ele><time>2026-04-27T11:03:53.459Z</time></trkpt><trkpt lat="43.7541475" lon="11.1902251"><ele>47.0</ele><time>2026-04-27T11:03:57.481Z</time></trkpt><trkpt lat="43.754203" lon="11.1901695"><ele>47.0</ele><time>2026-04-27T11:04:01.502Z</time></trkpt><trkpt lat="43.7542549" lon="11.1901155"><ele>47.0</ele><time>2026-04-27T11:04:06.475Z</time></trkpt><trkpt lat="43.754312" lon="11.1900737"><ele>47.0</ele><time>2026-04-27T11:04:12.413Z</time></trkpt><trkpt lat="43.7543767" lon="11.1900441"><ele>46.857142857142854</ele><time>2026-04-27T11:04:24.433Z</time></trkpt><trkpt lat="43.7544355" lon="11.1900795"><ele>46.71428571428571</ele><time>2026-04-27T11:04:29.434Z</time></trkpt><trkpt lat="43.7544799" lon="11.1901616"><ele>46.57142857142857</ele><time>2026-04-27T11:04:32.477Z</time></trkpt><trkpt lat="43.7545214" lon="11.1902294"><ele>46.42857142857143</ele><time>2026-04-27T11:04:35.519Z</time></trkpt><trkpt lat="43.7545716" lon="11.1903173"><ele>46.285714285714285</ele><time>2026-04-27T11:04:40.519Z</time></trkpt><trkpt lat="43.7546349" lon="11.1903305"><ele>46.142857142857146</ele><time>2026-04-27T11:04:44.43Z</time></trkpt><trkpt lat="43.754696" lon="11.1903861"><ele>46.0</ele><time>2026-04-27T11:04:52.473Z</time></trkpt><trkpt lat="43.7547396" lon="11.1904693"><ele>46.0</ele><time>2026-04-27T11:04:57.472Z</time></trkpt><trkpt lat="43.7547915" lon="11.1905435"><ele>46.0</ele><time>2026-04-27T11:05:02.471Z</time></trkpt><trkpt lat="43.7548423" lon="11.1906112"><ele>46.0</ele><time>2026-04-27T11:05:06.492Z</time></trkpt><trkpt lat="43.7548943" lon="11.1906897"><ele>46.0</ele><time>2026-04-27T11:05:11.514Z</time></trkpt><trkpt lat="43.7549428" lon="11.1907671"><ele>46.0</ele><time>2026-04-27T11:05:16.492Z</time></trkpt><trkpt lat="43.7549907" lon="11.190839"><ele>46.0</ele><time>2026-04-27T11:05:20.513Z</time></trkpt><trkpt lat="43.7550351" lon="11.1909154"><ele>46.0</ele><time>2026-04-27T11:05:25.435Z</time></trkpt><trkpt lat="43.7550806" lon="11.1909837"><ele>46.0</ele><time>2026-04-27T11:05:30.512Z</time></trkpt><trkpt lat="43.7551266" lon="11.1910625"><ele>46.0</ele><time>2026-04-27T11:05:35.509Z</time></trkpt><trkpt lat="43.7551673" lon="11.1911303"><ele>46.0</ele><time>2026-04-27T11:05:40.508Z</time></trkpt><trkpt lat="43.7552218" lon="11.1912113"><ele>46.0</ele><time>2026-04-27T11:05:45.508Z</time></trkpt><trkpt lat="43.7552749" lon="11.191264"><ele>46.0</ele><time>2026-04-27T11:05:50.512Z</time></trkpt><trkpt lat="43.7553169" lon="11.1913433"><ele>46.0</ele><time>2026-04-27T11:05:55.556Z</time></trkpt><trkpt lat="43.7553855" lon="11.1913362"><ele>46.0</ele><time>2026-04-27T11:06:08.443Z</time></trkpt><trkpt lat="43.7554275" lon="11.1912467"><ele>46.0</ele><time>2026-04-27T11:06:11.418Z</time></trkpt><trkpt lat="43.7554693" lon="11.1911804"><ele>46.0</ele><time>2026-04-27T11:06:14.421Z</time></trkpt><trkpt lat="43.7555202" lon="11.1911058"><ele>46.0</ele><time>2026-04-27T11:06:19.422Z</time></trkpt><trkpt lat="43.7555737" lon="11.1910269"><ele>46.0</ele><time>2026-04-27T11:06:24.452Z</time></trkpt><trkpt lat="43.7556224" lon="11.1909498"><ele>46.0</ele><time>2026-04-27T11:06:29.421Z</time></trkpt><trkpt lat="43.7556686" lon="11.1908744"><ele>46.0</ele><time>2026-04-27T11:06:34.421Z</time></trkpt><trkpt lat="43.7557033" lon="11.1907577"><ele>46.142857142857146</ele><time>2026-04-27T11:06:36.397Z</time></trkpt><trkpt lat="43.7557352" lon="11.1906739"><ele>46.285714285714285</ele><time>2026-04-27T11:06:37.472Z</time></trkpt><trkpt lat="43.755786" lon="11.1906054"><ele>46.42857142857143</ele><time>2026-04-27T11:06:40.353Z</time></trkpt><trkpt lat="43.7558526" lon="11.1905678"><ele>46.57142857142857</ele><time>2026-04-27T11:06:43.443Z</time></trkpt><trkpt lat="43.7559273" lon="11.1905732"><ele>46.71428571428571</ele><time>2026-04-27T11:06:47.465Z</time></trkpt><trkpt lat="43.7559944" lon="11.1905363"><ele>46.857142857142854</ele><time>2026-04-27T11:06:53.443Z</time></trkpt><trkpt lat="43.7560428" lon="11.1904619"><ele>47.0</ele><time>2026-04-27T11:06:58.444Z</time></trkpt><trkpt lat="43.7560851" lon="11.1903807"><ele>46.714285714285715</ele><time>2026-04-27T11:07:03.443Z</time></trkpt><trkpt lat="43.7561451" lon="11.1903141"><ele>46.42857142857143</ele><time>2026-04-27T11:07:08.445Z</time></trkpt><trkpt lat="43.7561996" lon="11.1902464"><ele>46.14285714285714</ele><time>2026-04-27T11:07:13.476Z</time></trkpt><trkpt lat="43.7562458" lon="11.1901871"><ele>45.85714285714286</ele><time>2026-04-27T11:07:17.466Z</time></trkpt><trkpt lat="43.756294" lon="11.1901282"><ele>45.57142857142858</ele><time>2026-04-27T11:07:21.488Z</time></trkpt><trkpt lat="43.7563492" lon="11.1900687"><ele>45.285714285714285</ele><time>2026-04-27T11:07:26.432Z</time></trkpt><trkpt lat="43.7564009" lon="11.1899903"><ele>45.0</ele><time>2026-04-27T11:07:31.489Z</time></trkpt><trkpt lat="43.7564481" lon="11.1899167"><ele>45.0</ele><time>2026-04-27T11:07:36.489Z</time></trkpt><trkpt lat="43.7565055" lon="11.1899816"><ele>45.0</ele><time>2026-04-27T11:07:47.468Z</time></trkpt><trkpt lat="43.756539" lon="11.19006"><ele>45.0</ele><time>2026-04-27T11:07:51.491Z</time></trkpt><trkpt lat="43.7565835" lon="11.1901304"><ele>45.0</ele><time>2026-04-27T11:07:56.49Z</time></trkpt><trkpt lat="43.7566312" lon="11.190207"><ele>45.0</ele><time>2026-04-27T11:08:02.497Z</time></trkpt><trkpt lat="43.7566765" lon="11.1902744"><ele>45.0</ele><time>2026-04-27T11:08:08.446Z</time></trkpt><trkpt lat="43.7567202" lon="11.1903435"><ele>45.0</ele><time>2026-04-27T11:08:13.358Z</time></trkpt><trkpt lat="43.7567723" lon="11.19042"><ele>45.0</ele><time>2026-04-27T11:08:18.445Z</time></trkpt><trkpt lat="43.756809" lon="11.1905013"><ele>45.0</ele><time>2026-04-27T11:08:23.445Z</time></trkpt><trkpt lat="43.7568714" lon="11.1905487"><ele>45.0</ele><time>2026-04-27T11:08:27.467Z</time></trkpt><trkpt lat="43.7569447" lon="11.1905652"><ele>45.0</ele><time>2026-04-27T11:08:31.489Z</time></trkpt><trkpt lat="43.757017" lon="11.1905765"><ele>45.0</ele><time>2026-04-27T11:08:36.489Z</time></trkpt><trkpt lat="43.7570838" lon="11.19062"><ele>45.0</ele><time>2026-04-27T11:08:40.419Z</time></trkpt><trkpt lat="43.7571445" lon="11.1906626"><ele>45.0</ele><time>2026-04-27T11:08:44.492Z</time></trkpt><trkpt lat="43.757189" lon="11.190731"><ele>45.0</ele><time>2026-04-27T11:08:49.42Z</time></trkpt><trkpt lat="43.757241" lon="11.1907838"><ele>45.0</ele><time>2026-04-27T11:08:55.373Z</time></trkpt><trkpt lat="43.7573012" lon="11.1908397"><ele>45.0</ele><time>2026-04-27T11:09:00.509Z</time></trkpt><trkpt lat="43.7573632" lon="11.190888"><ele>45.0</ele><time>2026-04-27T11:09:05.51Z</time></trkpt><trkpt lat="43.757423" lon="11.1909339"><ele>45.0</ele><time>2026-04-27T11:09:10.509Z</time></trkpt><trkpt lat="43.7574859" lon="11.1909951"><ele>45.0</ele><time>2026-04-27T11:09:15.509Z</time></trkpt><trkpt lat="43.757538" lon="11.1910484"><ele>45.0</ele><time>2026-04-27T11:09:20.51Z</time></trkpt><trkpt lat="43.7575946" lon="11.1911056"><ele>45.0</ele><time>2026-04-27T11:09:26.488Z</time></trkpt><trkpt lat="43.7576481" lon="11.1911623"><ele>45.0</ele><time>2026-04-27T11:09:31.488Z</time></trkpt><trkpt lat="43.757706" lon="11.1912176"><ele>45.0</ele><time>2026-04-27T11:09:35.511Z</time></trkpt><trkpt lat="43.7577642" lon="11.1912676"><ele>45.0</ele><time>2026-04-27T11:09:40.51Z</time></trkpt><trkpt lat="43.757822" lon="11.1913055"><ele>45.0</ele><time>2026-04-27T11:09:44.531Z</time></trkpt><trkpt lat="43.7579001" lon="11.1912594"><ele>45.0</ele><time>2026-04-27T11:09:49.495Z</time></trkpt><trkpt lat="43.7579522" lon="11.191205"><ele>45.0</ele><time>2026-04-27T11:09:52.466Z</time></trkpt><trkpt lat="43.7580136" lon="11.1911656"><ele>45.0</ele><time>2026-04-27T11:09:55.418Z</time></trkpt><trkpt lat="43.7580778" lon="11.1911015"><ele>45.0</ele><time>2026-04-27T11:09:59.423Z</time></trkpt><trkpt lat="43.7581348" lon="11.1910606"><ele>45.0</ele><time>2026-04-27T11:10:02.467Z</time></trkpt><trkpt lat="43.7581791" lon="11.1909984"><ele>45.0</ele><time>2026-04-27T11:10:07.468Z</time></trkpt><trkpt lat="43.7582159" lon="11.1909041"><ele>45.0</ele><time>2026-04-27T11:10:12.468Z</time></trkpt><trkpt lat="43.758249" lon="11.1908142"><ele>45.0</ele><time>2026-04-27T11:10:17.469Z</time></trkpt><trkpt lat="43.7582835" lon="11.1907205"><ele>45.0</ele><time>2026-04-27T11:10:22.47Z</time></trkpt><trkpt lat="43.7583118" lon="11.1906377"><ele>45.0</ele><time>2026-04-27T11:10:29.428Z</time></trkpt><trkpt lat="43.7583259" lon="11.1905425"><ele>45.0</ele><time>2026-04-27T11:10:33.45Z</time></trkpt><trkpt lat="43.7583498" lon="11.190453"><ele>45.0</ele><time>2026-04-27T11:10:37.471Z</time></trkpt><trkpt lat="43.7583736" lon="11.1903501"><ele>45.0</ele><time>2026-04-27T11:10:42.473Z</time></trkpt><trkpt lat="43.7583893" lon="11.1902518"><ele>45.0</ele><time>2026-04-27T11:10:47.473Z</time></trkpt><trkpt lat="43.7584199" lon="11.1901598"><ele>45.0</ele><time>2026-04-27T11:10:51.495Z</time></trkpt><trkpt lat="43.7584514" lon="11.190081"><ele>45.0</ele><time>2026-04-27T11:10:57.432Z</time></trkpt><trkpt lat="43.7584863" lon="11.1900064"><ele>45.0</ele><time>2026-04-27T11:11:02.476Z</time></trkpt><trkpt lat="43.7585255" lon="11.1899157"><ele>45.0</ele><time>2026-04-27T11:11:06.498Z</time></trkpt><trkpt lat="43.7585677" lon="11.1898437"><ele>45.0</ele><time>2026-04-27T11:11:09.432Z</time></trkpt><trkpt lat="43.7586097" lon="11.189761"><ele>45.0</ele><time>2026-04-27T11:11:15.417Z</time></trkpt><trkpt lat="43.7586459" lon="11.1896745"><ele>45.0</ele><time>2026-04-27T11:11:20.417Z</time></trkpt><trkpt lat="43.7586806" lon="11.1895929"><ele>45.0</ele><time>2026-04-27T11:11:25.417Z</time></trkpt><trkpt lat="43.7586994" lon="11.1895096"><ele>45.0</ele><time>2026-04-27T11:11:30.524Z</time></trkpt><trkpt lat="43.7587295" lon="11.1894154"><ele>45.0</ele><time>2026-04-27T11:11:36.504Z</time></trkpt><trkpt lat="43.7587918" lon="11.1893584"><ele>45.0</ele><time>2026-04-27T11:11:43.461Z</time></trkpt><trkpt lat="43.7588399" lon="11.189277"><ele>45.0</ele><time>2026-04-27T11:11:51.854Z</time></trkpt><trkpt lat="43.7588838" lon="11.1892"><ele>45.0</ele><time>2026-04-27T11:11:55.984Z</time></trkpt><trkpt lat="43.7589298" lon="11.189132"><ele>45.0</ele><time>2026-04-27T11:11:59.256Z</time></trkpt><trkpt lat="43.7589733" lon="11.189063"><ele>45.0</ele><time>2026-04-27T11:12:03.46Z</time></trkpt><trkpt lat="43.7590197" lon="11.1889974"><ele>45.0</ele><time>2026-04-27T11:12:08.459Z</time></trkpt><trkpt lat="43.7590669" lon="11.1889198"><ele>45.0</ele><time>2026-04-27T11:12:12.482Z</time></trkpt><trkpt lat="43.759112" lon="11.1888389"><ele>45.0</ele><time>2026-04-27T11:12:17.483Z</time></trkpt><trkpt lat="43.7591715" lon="11.188791"><ele>45.0</ele><time>2026-04-27T11:12:24.442Z</time></trkpt><trkpt lat="43.7592002" lon="11.1886997"><ele>45.0</ele><time>2026-04-27T11:12:29.015Z</time></trkpt><trkpt lat="43.75924" lon="11.1886164"><ele>45.0</ele><time>2026-04-27T11:12:33.313Z</time></trkpt><trkpt lat="43.7592839" lon="11.1885418"><ele>45.0</ele><time>2026-04-27T11:12:41.417Z</time></trkpt><trkpt lat="43.7593335" lon="11.1884507"><ele>45.0</ele><time>2026-04-27T11:12:46.509Z</time></trkpt><trkpt lat="43.7593803" lon="11.1883728"><ele>45.0</ele><time>2026-04-27T11:12:51.417Z</time></trkpt><trkpt lat="43.7594287" lon="11.1882907"><ele>45.0</ele><time>2026-04-27T11:12:56.417Z</time></trkpt><trkpt lat="43.75947" lon="11.1882188"><ele>45.0</ele><time>2026-04-27T11:13:00.197Z</time></trkpt><trkpt lat="43.7595129" lon="11.1881498"><ele>45.0</ele><time>2026-04-27T11:13:05.425Z</time></trkpt><trkpt lat="43.759553" lon="11.188071"><ele>45.0</ele><time>2026-04-27T11:13:10.427Z</time></trkpt><trkpt lat="43.7595927" lon="11.1879822"><ele>45.0</ele><time>2026-04-27T11:13:14.449Z</time></trkpt><trkpt lat="43.7596262" lon="11.1879009"><ele>45.0</ele><time>2026-04-27T11:13:18.47Z</time></trkpt><trkpt lat="43.7596634" lon="11.1878059"><ele>44.857142857142854</ele><time>2026-04-27T11:13:22.493Z</time></trkpt><trkpt lat="43.759687" lon="11.1877194"><ele>44.714285714285715</ele><time>2026-04-27T11:13:26.418Z</time></trkpt><trkpt lat="43.7596852" lon="11.1876223"><ele>44.57142857142857</ele><time>2026-04-27T11:13:31.417Z</time></trkpt><trkpt lat="43.7597005" lon="11.1875358"><ele>44.42857142857143</ele><time>2026-04-27T11:13:36.495Z</time></trkpt><trkpt lat="43.7597513" lon="11.1874767"><ele>44.285714285714285</ele><time>2026-04-27T11:13:40.431Z</time></trkpt><trkpt lat="43.759816" lon="11.1874241"><ele>44.142857142857146</ele><time>2026-04-27T11:13:45.413Z</time></trkpt><trkpt lat="43.7598503" lon="11.1873419"><ele>44.0</ele><time>2026-04-27T11:13:51.416Z</time></trkpt><trkpt lat="43.7599229" lon="11.1873094"><ele>43.85714285714286</ele><time>2026-04-27T11:14:00.428Z</time></trkpt><trkpt lat="43.7599504" lon="11.1872282"><ele>43.714285714285715</ele><time>2026-04-27T11:14:03.472Z</time></trkpt><trkpt lat="43.7599917" lon="11.1871543"><ele>43.57142857142857</ele><time>2026-04-27T11:14:06.416Z</time></trkpt><trkpt lat="43.7600376" lon="11.1870718"><ele>43.42857142857143</ele><time>2026-04-27T11:14:10.431Z</time></trkpt><trkpt lat="43.7600856" lon="11.1869888"><ele>43.285714285714285</ele><time>2026-04-27T11:14:17.517Z</time></trkpt><trkpt lat="43.7601293" lon="11.1869073"><ele>43.142857142857146</ele><time>2026-04-27T11:14:21.416Z</time></trkpt><trkpt lat="43.7601728" lon="11.186829"><ele>43.0</ele><time>2026-04-27T11:14:25.356Z</time></trkpt><trkpt lat="43.7602172" lon="11.1867492"><ele>42.714285714285715</ele><time>2026-04-27T11:14:31.417Z</time></trkpt><trkpt lat="43.7602696" lon="11.1866709"><ele>42.42857142857143</ele><time>2026-04-27T11:14:36.416Z</time></trkpt><trkpt lat="43.7603124" lon="11.1865984"><ele>42.14285714285714</ele><time>2026-04-27T11:14:40.435Z</time></trkpt><trkpt lat="43.760355" lon="11.186525"><ele>41.85714285714286</ele><time>2026-04-27T11:14:45.435Z</time></trkpt><trkpt lat="43.7603942" lon="11.1864555"><ele>41.57142857142857</ele><time>2026-04-27T11:14:49.514Z</time></trkpt><trkpt lat="43.760431" lon="11.186384"><ele>41.285714285714285</ele><time>2026-04-27T11:14:54.396Z</time></trkpt><trkpt lat="43.7604733" lon="11.1863153"><ele>41.0</ele><time>2026-04-27T11:14:59.459Z</time></trkpt><trkpt lat="43.7605197" lon="11.186228"><ele>40.99999999999999</ele><time>2026-04-27T11:15:04.459Z</time></trkpt><trkpt lat="43.7605628" lon="11.1861471"><ele>41.0</ele><time>2026-04-27T11:15:09.46Z</time></trkpt><trkpt lat="43.7606131" lon="11.18607"><ele>41.0</ele><time>2026-04-27T11:15:15.473Z</time></trkpt><trkpt lat="43.7606669" lon="11.1859948"><ele>41.0</ele><time>2026-04-27T11:15:20.512Z</time></trkpt><trkpt lat="43.76072" lon="11.1859187"><ele>41.0</ele><time>2026-04-27T11:15:24.463Z</time></trkpt><trkpt lat="43.7607641" lon="11.1858494"><ele>40.99999999999999</ele><time>2026-04-27T11:15:29.463Z</time></trkpt><trkpt lat="43.7608057" lon="11.1857667"><ele>41.0</ele><time>2026-04-27T11:15:36.421Z</time></trkpt><trkpt lat="43.7608093" lon="11.1856688"><ele>40.99999999999999</ele><time>2026-04-27T11:15:42.416Z</time></trkpt><trkpt lat="43.7608695" lon="11.1856421"><ele>41.0</ele><time>2026-04-27T11:15:52.416Z</time></trkpt><trkpt lat="43.7609348" lon="11.1855906"><ele>41.0</ele><time>2026-04-27T11:15:59.468Z</time></trkpt><trkpt lat="43.7609777" lon="11.1855167"><ele>41.0</ele><time>2026-04-27T11:16:02.416Z</time></trkpt><trkpt lat="43.7610331" lon="11.1854495"><ele>41.0</ele><time>2026-04-27T11:16:07.476Z</time></trkpt><trkpt lat="43.7610956" lon="11.1853845"><ele>40.99999999999999</ele><time>2026-04-27T11:16:11.427Z</time></trkpt><trkpt lat="43.7611468" lon="11.1853247"><ele>41.0</ele><time>2026-04-27T11:16:16.379Z</time></trkpt><trkpt lat="43.7611919" lon="11.1852531"><ele>40.99999999999999</ele><time>2026-04-27T11:16:22.416Z</time></trkpt><trkpt lat="43.7612346" lon="11.1851561"><ele>41.0</ele><time>2026-04-27T11:16:26.43Z</time></trkpt><trkpt lat="43.7612696" lon="11.1850801"><ele>41.0</ele><time>2026-04-27T11:16:30.451Z</time></trkpt><trkpt lat="43.7613183" lon="11.1850061"><ele>41.0</ele><time>2026-04-27T11:16:37.416Z</time></trkpt><trkpt lat="43.7613742" lon="11.1849459"><ele>41.0</ele><time>2026-04-27T11:16:42.416Z</time></trkpt><trkpt lat="43.7614247" lon="11.1848871"><ele>40.99999999999999</ele><time>2026-04-27T11:16:46.437Z</time></trkpt><trkpt lat="43.7614778" lon="11.1848153"><ele>41.0</ele><time>2026-04-27T11:16:51.353Z</time></trkpt><trkpt lat="43.7615302" lon="11.1847498"><ele>40.99999999999999</ele><time>2026-04-27T11:16:56.43Z</time></trkpt><trkpt lat="43.7615815" lon="11.1846783"><ele>41.0</ele><time>2026-04-27T11:17:01.431Z</time></trkpt><trkpt lat="43.7616314" lon="11.1846022"><ele>41.0</ele><time>2026-04-27T11:17:06.356Z</time></trkpt><trkpt lat="43.7616703" lon="11.1845308"><ele>41.0</ele><time>2026-04-27T11:17:11.435Z</time></trkpt><trkpt lat="43.7617216" lon="11.1844674"><ele>41.0</ele><time>2026-04-27T11:17:16.436Z</time></trkpt><trkpt lat="43.7617771" lon="11.1843814"><ele>40.99999999999999</ele><time>2026-04-27T11:17:21.437Z</time></trkpt><trkpt lat="43.7618221" lon="11.1843113"><ele>41.0</ele><time>2026-04-27T11:17:24.481Z</time></trkpt><trkpt lat="43.7618677" lon="11.1842383"><ele>40.99999999999999</ele><time>2026-04-27T11:17:30.459Z</time></trkpt><trkpt lat="43.7619108" lon="11.1841654"><ele>41.0</ele><time>2026-04-27T11:17:35.46Z</time></trkpt><trkpt lat="43.7619605" lon="11.1840854"><ele>41.0</ele><time>2026-04-27T11:17:40.434Z</time></trkpt><trkpt lat="43.7620033" lon="11.1840122"><ele>41.0</ele><time>2026-04-27T11:17:46.453Z</time></trkpt><trkpt lat="43.7620423" lon="11.1839303"><ele>41.0</ele><time>2026-04-27T11:17:50.464Z</time></trkpt><trkpt lat="43.7620862" lon="11.1838579"><ele>40.99999999999999</ele><time>2026-04-27T11:17:57.422Z</time></trkpt><trkpt lat="43.7621321" lon="11.1837752"><ele>41.0</ele><time>2026-04-27T11:18:02.423Z</time></trkpt><trkpt lat="43.7621848" lon="11.1836988"><ele>40.99999999999999</ele><time>2026-04-27T11:18:07.423Z</time></trkpt><trkpt lat="43.762248" lon="11.1836958"><ele>41.0</ele><time>2026-04-27T11:18:11.473Z</time></trkpt><trkpt lat="43.7623038" lon="11.1836321"><ele>41.0</ele><time>2026-04-27T11:18:16.457Z</time></trkpt><trkpt lat="43.7623552" lon="11.18357"><ele>41.0</ele><time>2026-04-27T11:18:20.469Z</time></trkpt><trkpt lat="43.7623996" lon="11.1835066"><ele>41.0</ele><time>2026-04-27T11:18:23.415Z</time></trkpt><trkpt lat="43.7624468" lon="11.1834387"><ele>40.99999999999999</ele><time>2026-04-27T11:18:29.514Z</time></trkpt><trkpt lat="43.7625134" lon="11.1834767"><ele>41.0</ele><time>2026-04-27T11:18:35.471Z</time></trkpt><trkpt lat="43.7625732" lon="11.1835345"><ele>40.99999999999999</ele><time>2026-04-27T11:18:39.412Z</time></trkpt><trkpt lat="43.7626265" lon="11.1835947"><ele>41.0</ele><time>2026-04-27T11:18:44.494Z</time></trkpt><trkpt lat="43.7626844" lon="11.1836566"><ele>41.0</ele><time>2026-04-27T11:18:49.496Z</time></trkpt><trkpt lat="43.7627426" lon="11.1837226"><ele>41.0</ele><time>2026-04-27T11:18:54.435Z</time></trkpt><trkpt lat="43.7627879" lon="11.183803"><ele>41.0</ele><time>2026-04-27T11:18:59.455Z</time></trkpt><trkpt lat="43.7628414" lon="11.1838516"><ele>40.99999999999999</ele><time>2026-04-27T11:19:03.415Z</time></trkpt><trkpt lat="43.7628667" lon="11.1839324"><ele>41.0</ele><time>2026-04-27T11:19:08.415Z</time></trkpt><trkpt lat="43.7629362" lon="11.183968"><ele>40.99999999999999</ele><time>2026-04-27T11:19:14.5Z</time></trkpt><trkpt lat="43.7629867" lon="11.1840203"><ele>41.0</ele><time>2026-04-27T11:19:18.415Z</time></trkpt><trkpt lat="43.7630374" lon="11.1840816"><ele>41.0</ele><time>2026-04-27T11:19:23.416Z</time></trkpt><trkpt lat="43.7630906" lon="11.1841536"><ele>41.0</ele><time>2026-04-27T11:19:28.416Z</time></trkpt><trkpt lat="43.7631516" lon="11.1841902"><ele>41.0</ele><time>2026-04-27T11:19:32.437Z</time></trkpt><trkpt lat="43.7632159" lon="11.1842338"><ele>40.99999999999999</ele><time>2026-04-27T11:19:38.416Z</time></trkpt><trkpt lat="43.7632587" lon="11.1843031"><ele>41.0</ele><time>2026-04-27T11:19:43.417Z</time></trkpt><trkpt lat="43.7633232" lon="11.1843032"><ele>40.99999999999999</ele><time>2026-04-27T11:19:55.485Z</time></trkpt><trkpt lat="43.7633727" lon="11.1842393"><ele>41.0</ele><time>2026-04-27T11:20:01.516Z</time></trkpt><trkpt lat="43.763426" lon="11.1841754"><ele>41.0</ele><time>2026-04-27T11:20:06.465Z</time></trkpt><trkpt lat="43.7634993" lon="11.1841509"><ele>41.0</ele><time>2026-04-27T11:20:11.474Z</time></trkpt><trkpt lat="43.7635744" lon="11.1841388"><ele>41.0</ele><time>2026-04-27T11:20:15.488Z</time></trkpt><trkpt lat="43.7636468" lon="11.1841337"><ele>40.99999999999999</ele><time>2026-04-27T11:20:19.51Z</time></trkpt><trkpt lat="43.7637258" lon="11.1841226"><ele>41.0</ele><time>2026-04-27T11:20:24.416Z</time></trkpt><trkpt lat="43.7637937" lon="11.1841253"><ele>41.14285714285714</ele><time>2026-04-27T11:20:28.535Z</time></trkpt><trkpt lat="43.7638725" lon="11.1841324"><ele>41.285714285714285</ele><time>2026-04-27T11:20:33.217Z</time></trkpt><trkpt lat="43.7639379" lon="11.184131"><ele>41.42857142857143</ele><time>2026-04-27T11:20:37.457Z</time></trkpt><trkpt lat="43.7640099" lon="11.1841306"><ele>41.57142857142857</ele><time>2026-04-27T11:20:42.45Z</time></trkpt><trkpt lat="43.7640746" lon="11.1841472"><ele>41.714285714285715</ele><time>2026-04-27T11:20:46.472Z</time></trkpt><trkpt lat="43.7641349" lon="11.1841859"><ele>41.857142857142854</ele><time>2026-04-27T11:20:50.495Z</time></trkpt><trkpt lat="43.7642039" lon="11.184227"><ele>42.0</ele><time>2026-04-27T11:20:55.415Z</time></trkpt><trkpt lat="43.7642678" lon="11.1842824"><ele>42.0</ele><time>2026-04-27T11:21:00.435Z</time></trkpt><trkpt lat="43.7643367" lon="11.1843173"><ele>42.0</ele><time>2026-04-27T11:21:05.812Z</time></trkpt><trkpt lat="43.7643969" lon="11.1843603"><ele>42.0</ele><time>2026-04-27T11:21:10.293Z</time></trkpt><trkpt lat="43.7644597" lon="11.1844098"><ele>42.0</ele><time>2026-04-27T11:21:15.499Z</time></trkpt><trkpt lat="43.7645218" lon="11.1843574"><ele>42.0</ele><time>2026-04-27T11:21:22.417Z</time></trkpt><trkpt lat="43.764566" lon="11.1842798"><ele>42.0</ele><time>2026-04-27T11:21:26.478Z</time></trkpt><trkpt lat="43.7646133" lon="11.1842128"><ele>42.0</ele><time>2026-04-27T11:21:29.523Z</time></trkpt><trkpt lat="43.764675" lon="11.184137"><ele>41.857142857142854</ele><time>2026-04-27T11:21:34.414Z</time></trkpt><trkpt lat="43.7647294" lon="11.1840622"><ele>41.714285714285715</ele><time>2026-04-27T11:21:39.523Z</time></trkpt><trkpt lat="43.7647798" lon="11.1839849"><ele>41.57142857142857</ele><time>2026-04-27T11:21:44.415Z</time></trkpt><trkpt lat="43.7648331" lon="11.1839133"><ele>41.42857142857143</ele><time>2026-04-27T11:21:49.525Z</time></trkpt><trkpt lat="43.7648881" lon="11.1838595"><ele>41.285714285714285</ele><time>2026-04-27T11:21:56.483Z</time></trkpt><trkpt lat="43.764935" lon="11.1837853"><ele>41.14285714285714</ele><time>2026-04-27T11:22:01.484Z</time></trkpt><trkpt lat="43.7649768" lon="11.18372"><ele>41.0</ele><time>2026-04-27T11:22:07.462Z</time></trkpt><trkpt lat="43.7650238" lon="11.1836519"><ele>41.285714285714285</ele><time>2026-04-27T11:22:12.463Z</time></trkpt><trkpt lat="43.7650634" lon="11.1835708"><ele>41.57142857142857</ele><time>2026-04-27T11:22:18.441Z</time></trkpt><trkpt lat="43.7650246" lon="11.1834788"><ele>41.85714285714286</ele><time>2026-04-27T11:22:23.442Z</time></trkpt><trkpt lat="43.7650029" lon="11.1833916"><ele>42.14285714285714</ele><time>2026-04-27T11:22:27.464Z</time></trkpt><trkpt lat="43.7649703" lon="11.1832987"><ele>42.42857142857143</ele><time>2026-04-27T11:22:32.466Z</time></trkpt><trkpt lat="43.7649355" lon="11.1832025"><ele>42.714285714285715</ele><time>2026-04-27T11:22:37.466Z</time></trkpt><trkpt lat="43.764911" lon="11.1831181"><ele>43.0</ele><time>2026-04-27T11:22:42.416Z</time></trkpt><trkpt lat="43.764881" lon="11.1830352"><ele>43.00000000000001</ele><time>2026-04-27T11:22:47.467Z</time></trkpt><trkpt lat="43.7648586" lon="11.182949"><ele>43.0</ele><time>2026-04-27T11:22:51.489Z</time></trkpt><trkpt lat="43.7648306" lon="11.1828584"><ele>43.0</ele><time>2026-04-27T11:22:56.49Z</time></trkpt><trkpt lat="43.7648023" lon="11.1827583"><ele>43.0</ele><time>2026-04-27T11:23:01.49Z</time></trkpt><trkpt lat="43.7647703" lon="11.1826673"><ele>43.0</ele><time>2026-04-27T11:23:06.373Z</time></trkpt><trkpt lat="43.7647434" lon="11.1825832"><ele>43.00000000000001</ele><time>2026-04-27T11:23:12.469Z</time></trkpt><trkpt lat="43.7647197" lon="11.1824905"><ele>43.0</ele><time>2026-04-27T11:23:16.489Z</time></trkpt><trkpt lat="43.7646935" lon="11.1823944"><ele>42.85714285714286</ele><time>2026-04-27T11:23:21.489Z</time></trkpt><trkpt lat="43.7646646" lon="11.1823135"><ele>42.714285714285715</ele><time>2026-04-27T11:23:25.511Z</time></trkpt><trkpt lat="43.7646579" lon="11.182215"><ele>42.57142857142857</ele><time>2026-04-27T11:23:30.356Z</time></trkpt><trkpt lat="43.7646383" lon="11.1821267"><ele>42.42857142857143</ele><time>2026-04-27T11:23:35.515Z</time></trkpt><trkpt lat="43.7646211" lon="11.182015"><ele>42.285714285714285</ele><time>2026-04-27T11:23:41.021Z</time></trkpt><trkpt lat="43.7645899" lon="11.1819269"><ele>42.142857142857146</ele><time>2026-04-27T11:23:46.489Z</time></trkpt><trkpt lat="43.7645746" lon="11.1818366"><ele>42.0</ele><time>2026-04-27T11:23:50.511Z</time></trkpt><trkpt lat="43.7645988" lon="11.1817535"><ele>42.0</ele><time>2026-04-27T11:23:54.527Z</time></trkpt><trkpt lat="43.7645954" lon="11.1816536"><ele>42.0</ele><time>2026-04-27T11:24:00.505Z</time></trkpt><trkpt lat="43.7645817" lon="11.1815676"><ele>42.0</ele><time>2026-04-27T11:24:04.528Z</time></trkpt><trkpt lat="43.7645719" lon="11.1814621"><ele>42.0</ele><time>2026-04-27T11:24:08.441Z</time></trkpt><trkpt lat="43.7645627" lon="11.1813735"><ele>42.0</ele><time>2026-04-27T11:24:13.538Z</time></trkpt><trkpt lat="43.7645469" lon="11.1812679"><ele>42.0</ele><time>2026-04-27T11:24:19.527Z</time></trkpt><trkpt lat="43.7645314" lon="11.1811761"><ele>42.0</ele><time>2026-04-27T11:24:24.455Z</time></trkpt><trkpt lat="43.7645137" lon="11.1810763"><ele>42.0</ele><time>2026-04-27T11:24:30.504Z</time></trkpt><trkpt lat="43.7644989" lon="11.1809902"><ele>42.0</ele><time>2026-04-27T11:24:34.357Z</time></trkpt><trkpt lat="43.7644854" lon="11.1808988"><ele>42.0</ele><time>2026-04-27T11:24:39.525Z</time></trkpt><trkpt lat="43.7644758" lon="11.1808053"><ele>42.0</ele><time>2026-04-27T11:24:44.521Z</time></trkpt><trkpt lat="43.7644591" lon="11.1807156"><ele>42.0</ele><time>2026-04-27T11:24:50.498Z</time></trkpt><trkpt lat="43.7644185" lon="11.1806422"><ele>42.0</ele><time>2026-04-27T11:24:55.498Z</time></trkpt><trkpt lat="43.7643867" lon="11.1805556"><ele>42.0</ele><time>2026-04-27T11:24:59.519Z</time></trkpt><trkpt lat="43.7643385" lon="11.1804846"><ele>42.0</ele><time>2026-04-27T11:25:07.397Z</time></trkpt><trkpt lat="43.7643313" lon="11.1803809"><ele>42.0</ele><time>2026-04-27T11:25:12.895Z</time></trkpt><trkpt lat="43.7643732" lon="11.1803157"><ele>42.0</ele><time>2026-04-27T11:25:17.453Z</time></trkpt><trkpt lat="43.7644173" lon="11.1802487"><ele>42.0</ele><time>2026-04-27T11:25:23.432Z</time></trkpt><trkpt lat="43.7643888" lon="11.1801618"><ele>42.0</ele><time>2026-04-27T11:25:29.515Z</time></trkpt><trkpt lat="43.7643653" lon="11.1800618"><ele>42.0</ele><time>2026-04-27T11:25:33.428Z</time></trkpt><trkpt lat="43.7643519" lon="11.1799709"><ele>42.0</ele><time>2026-04-27T11:25:37.449Z</time></trkpt><trkpt lat="43.7643336" lon="11.1798718"><ele>42.142857142857146</ele><time>2026-04-27T11:25:41.471Z</time></trkpt><trkpt lat="43.7643158" lon="11.17978"><ele>42.285714285714285</ele><time>2026-04-27T11:25:46.472Z</time></trkpt><trkpt lat="43.7643068" lon="11.1796888"><ele>42.42857142857143</ele><time>2026-04-27T11:25:51.214Z</time></trkpt><trkpt lat="43.7643745" lon="11.1797034"><ele>42.57142857142857</ele><time>2026-04-27T11:26:04.415Z</time></trkpt><trkpt lat="43.7644389" lon="11.1796414"><ele>42.714285714285715</ele><time>2026-04-27T11:26:09.414Z</time></trkpt><trkpt lat="43.7645006" lon="11.1795714"><ele>42.85714285714286</ele><time>2026-04-27T11:26:13.431Z</time></trkpt><trkpt lat="43.7645572" lon="11.1795224"><ele>43.0</ele><time>2026-04-27T11:26:18.431Z</time></trkpt><trkpt lat="43.7646209" lon="11.1794961"><ele>42.714285714285715</ele><time>2026-04-27T11:26:23.431Z</time></trkpt><trkpt lat="43.7646711" lon="11.1794331"><ele>42.42857142857143</ele><time>2026-04-27T11:26:28.474Z</time></trkpt><trkpt lat="43.7647286" lon="11.1793709"><ele>42.14285714285714</ele><time>2026-04-27T11:26:34.413Z</time></trkpt><trkpt lat="43.7647839" lon="11.1793026"><ele>41.85714285714286</ele><time>2026-04-27T11:26:39.413Z</time></trkpt><trkpt lat="43.7648448" lon="11.1792351"><ele>41.57142857142857</ele><time>2026-04-27T11:26:44.413Z</time></trkpt><trkpt lat="43.7648966" lon="11.1791722"><ele>41.285714285714285</ele><time>2026-04-27T11:26:48.433Z</time></trkpt><trkpt lat="43.7649398" lon="11.1791086"><ele>41.0</ele><time>2026-04-27T11:26:52.455Z</time></trkpt><trkpt lat="43.7649917" lon="11.1790519"><ele>41.14285714285714</ele><time>2026-04-27T11:26:56.478Z</time></trkpt><trkpt lat="43.7650293" lon="11.1789792"><ele>41.285714285714285</ele><time>2026-04-27T11:27:00.413Z</time></trkpt><trkpt lat="43.7650186" lon="11.1788875"><ele>41.42857142857143</ele><time>2026-04-27T11:27:04.335Z</time></trkpt><trkpt lat="43.7649924" lon="11.1787955"><ele>41.57142857142857</ele><time>2026-04-27T11:27:09.413Z</time></trkpt><trkpt lat="43.7649749" lon="11.1787011"><ele>41.714285714285715</ele><time>2026-04-27T11:27:13.436Z</time></trkpt><trkpt lat="43.7649632" lon="11.1786143"><ele>41.857142857142854</ele><time>2026-04-27T11:27:17.457Z</time></trkpt><trkpt lat="43.764958" lon="11.1785168"><ele>42.0</ele><time>2026-04-27T11:27:22.457Z</time></trkpt><trkpt lat="43.7649426" lon="11.1784203"><ele>42.0</ele><time>2026-04-27T11:27:28.436Z</time></trkpt><trkpt lat="43.7649233" lon="11.1783246"><ele>42.0</ele><time>2026-04-27T11:27:35.375Z</time></trkpt><trkpt lat="43.7649082" lon="11.1782381"><ele>42.0</ele><time>2026-04-27T11:27:40.989Z</time></trkpt><trkpt lat="43.764897" lon="11.1781481"><ele>42.0</ele><time>2026-04-27T11:27:45.456Z</time></trkpt><trkpt lat="43.7648808" lon="11.1780614"><ele>42.0</ele><time>2026-04-27T11:27:50.413Z</time></trkpt><trkpt lat="43.7648575" lon="11.1779657"><ele>42.0</ele><time>2026-04-27T11:27:55.413Z</time></trkpt><trkpt lat="43.7648412" lon="11.1778558"><ele>42.0</ele><time>2026-04-27T11:28:00.504Z</time></trkpt><trkpt lat="43.7648242" lon="11.1777664"><ele>42.0</ele><time>2026-04-27T11:28:04.418Z</time></trkpt><trkpt lat="43.7648082" lon="11.1776685"><ele>42.0</ele><time>2026-04-27T11:28:09.419Z</time></trkpt><trkpt lat="43.7647921" lon="11.177572"><ele>42.0</ele><time>2026-04-27T11:28:15.413Z</time></trkpt><trkpt lat="43.7647745" lon="11.1774689"><ele>42.0</ele><time>2026-04-27T11:28:20.506Z</time></trkpt><trkpt lat="43.7647597" lon="11.1773734"><ele>42.0</ele><time>2026-04-27T11:28:26.317Z</time></trkpt><trkpt lat="43.7647442" lon="11.1772869"><ele>42.0</ele><time>2026-04-27T11:28:31.486Z</time></trkpt><trkpt lat="43.764731" lon="11.1771929"><ele>42.0</ele><time>2026-04-27T11:28:36.486Z</time></trkpt><trkpt lat="43.7647128" lon="11.1770933"><ele>42.0</ele><time>2026-04-27T11:28:41.487Z</time></trkpt><trkpt lat="43.7646986" lon="11.1770062"><ele>42.0</ele><time>2026-04-27T11:28:46.487Z</time></trkpt><trkpt lat="43.7646806" lon="11.1769074"><ele>42.0</ele><time>2026-04-27T11:28:51.134Z</time></trkpt><trkpt lat="43.7646686" lon="11.1768207"><ele>42.0</ele><time>2026-04-27T11:28:56.489Z</time></trkpt><trkpt lat="43.7646513" lon="11.1767238"><ele>42.0</ele><time>2026-04-27T11:29:02.467Z</time></trkpt><trkpt lat="43.7646393" lon="11.1766246"><ele>42.0</ele><time>2026-04-27T11:29:07.414Z</time></trkpt><trkpt lat="43.7646215" lon="11.1765336"><ele>42.0</ele><time>2026-04-27T11:29:12.273Z</time></trkpt><trkpt lat="43.7646055" lon="11.1764451"><ele>41.857142857142854</ele><time>2026-04-27T11:29:17.468Z</time></trkpt><trkpt lat="43.7645947" lon="11.1763557"><ele>41.714285714285715</ele><time>2026-04-27T11:29:22.437Z</time></trkpt><trkpt lat="43.7645455" lon="11.1762997"><ele>41.57142857142857</ele><time>2026-04-27T11:29:27.47Z</time></trkpt><trkpt lat="43.7644909" lon="11.1762396"><ele>41.42857142857143</ele><time>2026-04-27T11:29:32.47Z</time></trkpt><trkpt lat="43.7644283" lon="11.1762021"><ele>41.285714285714285</ele><time>2026-04-27T11:29:37.47Z</time></trkpt><trkpt lat="43.7643915" lon="11.1761202"><ele>41.14285714285714</ele><time>2026-04-27T11:29:41.492Z</time></trkpt><trkpt lat="43.7643648" lon="11.1760397"><ele>41.0</ele><time>2026-04-27T11:29:45.413Z</time></trkpt><trkpt lat="43.7643762" lon="11.1759305"><ele>40.99999999999999</ele><time>2026-04-27T11:29:50.515Z</time></trkpt><trkpt lat="43.7644146" lon="11.1758491"><ele>41.0</ele><time>2026-04-27T11:29:54.428Z</time></trkpt><trkpt lat="43.7644278" lon="11.1757583"><ele>41.0</ele><time>2026-04-27T11:30:00.413Z</time></trkpt><trkpt lat="43.7644257" lon="11.1756679"><ele>41.0</ele><time>2026-04-27T11:30:05.474Z</time></trkpt><trkpt lat="43.7643616" lon="11.1756507"><ele>41.0</ele><time>2026-04-27T11:30:09.428Z</time></trkpt><trkpt lat="43.764286" lon="11.1756497"><ele>40.99999999999999</ele><time>2026-04-27T11:30:13.451Z</time></trkpt><trkpt lat="43.7642159" lon="11.1756402"><ele>41.0</ele><time>2026-04-27T11:30:18.451Z</time></trkpt><trkpt lat="43.7641534" lon="11.1756259"><ele>40.99999999999999</ele><time>2026-04-27T11:30:27.473Z</time></trkpt><trkpt lat="43.7640905" lon="11.1756087"><ele>41.0</ele><time>2026-04-27T11:30:33.514Z</time></trkpt><trkpt lat="43.7640283" lon="11.1755908"><ele>41.0</ele><time>2026-04-27T11:30:37.475Z</time></trkpt><trkpt lat="43.7639527" lon="11.1755739"><ele>41.0</ele><time>2026-04-27T11:30:42.512Z</time></trkpt><trkpt lat="43.7638813" lon="11.1755653"><ele>41.0</ele><time>2026-04-27T11:30:48.453Z</time></trkpt><trkpt lat="43.7638105" lon="11.1756094"><ele>40.99999999999999</ele><time>2026-04-27T11:30:53.454Z</time></trkpt><trkpt lat="43.7637788" lon="11.1756965"><ele>41.0</ele><time>2026-04-27T11:31:00.413Z</time></trkpt><trkpt lat="43.763762" lon="11.1757884"><ele>41.14285714285714</ele><time>2026-04-27T11:31:06.413Z</time></trkpt><trkpt lat="43.763753" lon="11.1758911"><ele>41.285714285714285</ele><time>2026-04-27T11:31:34.438Z</time></trkpt><trkpt lat="43.7636904" lon="11.1759435"><ele>41.42857142857143</ele><time>2026-04-27T11:31:40.336Z</time></trkpt><trkpt lat="43.7636314" lon="11.1759037"><ele>41.57142857142857</ele><time>2026-04-27T11:31:43.459Z</time></trkpt><trkpt lat="43.7635639" lon="11.1758586"><ele>41.714285714285715</ele><time>2026-04-27T11:31:47.481Z</time></trkpt><trkpt lat="43.7636279" lon="11.1759163"><ele>41.857142857142854</ele><time>2026-04-27T11:31:59.438Z</time></trkpt><trkpt lat="43.7637014" lon="11.1759106"><ele>42.0</ele><time>2026-04-27T11:32:05.525Z</time></trkpt><trkpt lat="43.763748" lon="11.1759852"><ele>42.0</ele><time>2026-04-27T11:32:09.439Z</time></trkpt><trkpt lat="43.7637662" lon="11.1760703"><ele>42.0</ele><time>2026-04-27T11:32:14.476Z</time></trkpt><trkpt lat="43.7637788" lon="11.176168"><ele>42.0</ele><time>2026-04-27T11:32:34.439Z</time></trkpt><trkpt lat="43.7637572" lon="11.176256"><ele>42.0</ele><time>2026-04-27T11:32:38.294Z</time></trkpt><trkpt lat="43.7637634" lon="11.1763596"><ele>42.0</ele><time>2026-04-27T11:32:42.481Z</time></trkpt><trkpt lat="43.7637701" lon="11.1764526"><ele>42.0</ele><time>2026-04-27T11:32:47.481Z</time></trkpt><trkpt lat="43.7637771" lon="11.1765409"><ele>42.0</ele><time>2026-04-27T11:32:51.495Z</time></trkpt><trkpt lat="43.7637861" lon="11.1766414"><ele>42.285714285714285</ele><time>2026-04-27T11:32:56.503Z</time></trkpt><trkpt lat="43.7637942" lon="11.1767326"><ele>42.57142857142857</ele><time>2026-04-27T11:33:00.375Z</time></trkpt><trkpt lat="43.7637947" lon="11.1768288"><ele>42.85714285714286</ele><time>2026-04-27T11:33:05.355Z</time></trkpt><trkpt lat="43.7637247" lon="11.1768341"><ele>43.14285714285714</ele><time>2026-04-27T11:33:13.413Z</time></trkpt><trkpt lat="43.76367" lon="11.1767765"><ele>43.42857142857143</ele><time>2026-04-27T11:33:19.437Z</time></trkpt><trkpt lat="43.7636448" lon="11.1766833"><ele>43.714285714285715</ele><time>2026-04-27T11:33:24.437Z</time></trkpt><trkpt lat="43.7636094" lon="11.1766035"><ele>44.0</ele><time>2026-04-27T11:33:33.46Z</time></trkpt><trkpt lat="43.7635459" lon="11.1765705"><ele>43.85714285714286</ele><time>2026-04-27T11:33:37.483Z</time></trkpt><trkpt lat="43.7634797" lon="11.1765539"><ele>43.714285714285715</ele><time>2026-04-27T11:33:40.417Z</time></trkpt><trkpt lat="43.7634158" lon="11.176539"><ele>43.57142857142857</ele><time>2026-04-27T11:33:43.461Z</time></trkpt><trkpt lat="43.7633486" lon="11.1765118"><ele>43.42857142857143</ele><time>2026-04-27T11:33:47.483Z</time></trkpt><trkpt lat="43.7632773" lon="11.1765148"><ele>43.285714285714285</ele><time>2026-04-27T11:33:51.412Z</time></trkpt><trkpt lat="43.7632132" lon="11.1764867"><ele>43.142857142857146</ele><time>2026-04-27T11:33:54.441Z</time></trkpt><trkpt lat="43.7631378" lon="11.176443"><ele>43.0</ele><time>2026-04-27T11:33:58.463Z</time></trkpt><trkpt lat="43.7630741" lon="11.1764029"><ele>43.00000000000001</ele><time>2026-04-27T11:34:02.267Z</time></trkpt><trkpt lat="43.7630098" lon="11.1763745"><ele>43.0</ele><time>2026-04-27T11:34:06.412Z</time></trkpt><trkpt lat="43.7629439" lon="11.1763317"><ele>43.0</ele><time>2026-04-27T11:34:12.487Z</time></trkpt><trkpt lat="43.7628715" lon="11.1762832"><ele>43.0</ele><time>2026-04-27T11:34:18.466Z</time></trkpt><trkpt lat="43.7628023" lon="11.1762386"><ele>43.0</ele><time>2026-04-27T11:34:22.477Z</time></trkpt><trkpt lat="43.7627355" lon="11.1761983"><ele>43.00000000000001</ele><time>2026-04-27T11:34:27.489Z</time></trkpt><trkpt lat="43.7626763" lon="11.1761533"><ele>43.0</ele><time>2026-04-27T11:34:31.413Z</time></trkpt><trkpt lat="43.7626076" lon="11.176109"><ele>43.142857142857146</ele><time>2026-04-27T11:34:36.436Z</time></trkpt><trkpt lat="43.7625435" lon="11.1760561"><ele>43.285714285714285</ele><time>2026-04-27T11:34:42.492Z</time></trkpt><trkpt lat="43.7624733" lon="11.1760119"><ele>43.42857142857143</ele><time>2026-04-27T11:34:47.42Z</time></trkpt><trkpt lat="43.7624124" lon="11.1759674"><ele>43.57142857142857</ele><time>2026-04-27T11:34:54.451Z</time></trkpt><trkpt lat="43.7623473" lon="11.1759337"><ele>43.714285714285715</ele><time>2026-04-27T11:35:00.413Z</time></trkpt><trkpt lat="43.7622842" lon="11.1758947"><ele>43.85714285714286</ele><time>2026-04-27T11:35:06.412Z</time></trkpt><trkpt lat="43.7622242" lon="11.1758554"><ele>44.0</ele><time>2026-04-27T11:35:11.412Z</time></trkpt><trkpt lat="43.7621664" lon="11.1758199"><ele>44.0</ele><time>2026-04-27T11:35:15.432Z</time></trkpt><trkpt lat="43.7621055" lon="11.1757856"><ele>44.0</ele><time>2026-04-27T11:35:18.476Z</time></trkpt><trkpt lat="43.7620475" lon="11.1757468"><ele>44.0</ele><time>2026-04-27T11:35:21.412Z</time></trkpt><trkpt lat="43.7619826" lon="11.1757029"><ele>44.0</ele><time>2026-04-27T11:35:25.434Z</time></trkpt><trkpt lat="43.7619124" lon="11.175663"><ele>44.0</ele><time>2026-04-27T11:35:30.435Z</time></trkpt><trkpt lat="43.7618498" lon="11.1756274"><ele>44.0</ele><time>2026-04-27T11:35:38.952Z</time></trkpt><trkpt lat="43.7617843" lon="11.1756485"><ele>44.0</ele><time>2026-04-27T11:35:45.496Z</time></trkpt><trkpt lat="43.7617453" lon="11.175737"><ele>44.0</ele><time>2026-04-27T11:35:51.416Z</time></trkpt><trkpt lat="43.7617062" lon="11.1758121"><ele>44.0</ele><time>2026-04-27T11:35:56.418Z</time></trkpt><trkpt lat="43.7616666" lon="11.1758983"><ele>44.0</ele><time>2026-04-27T11:36:02.453Z</time></trkpt><trkpt lat="43.7616299" lon="11.1759807"><ele>44.0</ele><time>2026-04-27T11:36:08.485Z</time></trkpt><trkpt lat="43.7615948" lon="11.1760643"><ele>44.0</ele><time>2026-04-27T11:36:14.464Z</time></trkpt><trkpt lat="43.7615554" lon="11.1761562"><ele>44.0</ele><time>2026-04-27T11:36:19.465Z</time></trkpt><trkpt lat="43.7615235" lon="11.1762462"><ele>44.0</ele><time>2026-04-27T11:36:25.445Z</time></trkpt><trkpt lat="43.7614918" lon="11.1763217"><ele>44.0</ele><time>2026-04-27T11:36:29.467Z</time></trkpt><trkpt lat="43.7614554" lon="11.1764039"><ele>44.0</ele><time>2026-04-27T11:36:34.468Z</time></trkpt><trkpt lat="43.7614171" lon="11.1764951"><ele>44.0</ele><time>2026-04-27T11:36:39.468Z</time></trkpt><trkpt lat="43.7613846" lon="11.1765769"><ele>44.0</ele><time>2026-04-27T11:36:43.492Z</time></trkpt><trkpt lat="43.7613531" lon="11.1766539"><ele>44.0</ele><time>2026-04-27T11:36:47.412Z</time></trkpt><trkpt lat="43.761315" lon="11.176733"><ele>44.0</ele><time>2026-04-27T11:36:52.411Z</time></trkpt><trkpt lat="43.761282" lon="11.1768178"><ele>44.0</ele><time>2026-04-27T11:36:59.472Z</time></trkpt><trkpt lat="43.7612446" lon="11.1769008"><ele>43.85714285714286</ele><time>2026-04-27T11:37:06.43Z</time></trkpt><trkpt lat="43.7612122" lon="11.1769826"><ele>43.714285714285715</ele><time>2026-04-27T11:37:10.453Z</time></trkpt><trkpt lat="43.761181" lon="11.1770725"><ele>43.57142857142857</ele><time>2026-04-27T11:37:15.454Z</time></trkpt><trkpt lat="43.7611446" lon="11.1771564"><ele>43.42857142857143</ele><time>2026-04-27T11:37:20.456Z</time></trkpt><trkpt lat="43.7611054" lon="11.1772413"><ele>43.285714285714285</ele><time>2026-04-27T11:37:24.475Z</time></trkpt><trkpt lat="43.7610734" lon="11.177317"><ele>43.142857142857146</ele><time>2026-04-27T11:37:29.013Z</time></trkpt><trkpt lat="43.7610351" lon="11.1774039"><ele>43.0</ele><time>2026-04-27T11:37:34.48Z</time></trkpt><trkpt lat="43.7609718" lon="11.1774311"><ele>43.00000000000001</ele><time>2026-04-27T11:37:41.437Z</time></trkpt><trkpt lat="43.7609043" lon="11.177423"><ele>43.0</ele><time>2026-04-27T11:37:52.419Z</time></trkpt><trkpt lat="43.7608313" lon="11.1773668"><ele>43.0</ele><time>2026-04-27T11:37:56.441Z</time></trkpt><trkpt lat="43.7607647" lon="11.1773164"><ele>43.0</ele><time>2026-04-27T11:38:00.463Z</time></trkpt><trkpt lat="43.7606959" lon="11.1772679"><ele>43.0</ele><time>2026-04-27T11:38:05.465Z</time></trkpt><trkpt lat="43.7606313" lon="11.1772184"><ele>43.00000000000001</ele><time>2026-04-27T11:38:12.422Z</time></trkpt><trkpt lat="43.7605775" lon="11.1771731"><ele>43.0</ele><time>2026-04-27T11:38:17.514Z</time></trkpt><trkpt lat="43.7605211" lon="11.1771271"><ele>43.00000000000001</ele><time>2026-04-27T11:38:22.838Z</time></trkpt><trkpt lat="43.7604536" lon="11.1770721"><ele>43.0</ele><time>2026-04-27T11:38:28.395Z</time></trkpt><trkpt lat="43.7603919" lon="11.177031"><ele>43.0</ele><time>2026-04-27T11:38:33.411Z</time></trkpt><trkpt lat="43.7603241" lon="11.1769745"><ele>43.0</ele><time>2026-04-27T11:38:37.426Z</time></trkpt><trkpt lat="43.7602633" lon="11.1769244"><ele>43.0</ele><time>2026-04-27T11:38:42.427Z</time></trkpt><trkpt lat="43.7602022" lon="11.1768688"><ele>43.00000000000001</ele><time>2026-04-27T11:38:47.428Z</time></trkpt><trkpt lat="43.7601375" lon="11.1768181"><ele>43.0</ele><time>2026-04-27T11:38:52.429Z</time></trkpt><trkpt lat="43.7600735" lon="11.1767891"><ele>42.85714285714286</ele><time>2026-04-27T11:38:56.451Z</time></trkpt><trkpt lat="43.760003" lon="11.176794"><ele>42.714285714285715</ele><time>2026-04-27T11:39:00.474Z</time></trkpt><trkpt lat="43.7599341" lon="11.1768126"><ele>42.57142857142857</ele><time>2026-04-27T11:39:04.338Z</time></trkpt><trkpt lat="43.7598779" lon="11.1768574"><ele>42.42857142857143</ele><time>2026-04-27T11:39:09.796Z</time></trkpt><trkpt lat="43.7598275" lon="11.1769254"><ele>42.285714285714285</ele><time>2026-04-27T11:39:14.293Z</time></trkpt><trkpt lat="43.7597974" lon="11.1770029"><ele>42.142857142857146</ele><time>2026-04-27T11:39:19.471Z</time></trkpt><trkpt lat="43.7597588" lon="11.1770861"><ele>42.0</ele><time>2026-04-27T11:39:24.394Z</time></trkpt><trkpt lat="43.7597253" lon="11.1771617"><ele>42.0</ele><time>2026-04-27T11:39:30.479Z</time></trkpt><trkpt lat="43.7596913" lon="11.1772446"><ele>42.0</ele><time>2026-04-27T11:39:36.519Z</time></trkpt><trkpt lat="43.7596531" lon="11.1773321"><ele>42.0</ele><time>2026-04-27T11:39:42.054Z</time></trkpt><trkpt lat="43.7596145" lon="11.1774252"><ele>42.0</ele><time>2026-04-27T11:39:47.438Z</time></trkpt><trkpt lat="43.7595732" lon="11.1775133"><ele>42.0</ele><time>2026-04-27T11:39:53.417Z</time></trkpt><trkpt lat="43.7595361" lon="11.1775936"><ele>42.0</ele><time>2026-04-27T11:39:59.505Z</time></trkpt><trkpt lat="43.7594979" lon="11.1776878"><ele>42.0</ele><time>2026-04-27T11:40:05.485Z</time></trkpt><trkpt lat="43.7594615" lon="11.1777652"><ele>42.0</ele><time>2026-04-27T11:40:09.411Z</time></trkpt><trkpt lat="43.7594218" lon="11.1778527"><ele>42.0</ele><time>2026-04-27T11:40:13.053Z</time></trkpt><trkpt lat="43.7593824" lon="11.1779409"><ele>42.0</ele><time>2026-04-27T11:40:18.434Z</time></trkpt><trkpt lat="43.7593513" lon="11.1780251"><ele>42.0</ele><time>2026-04-27T11:40:24.41Z</time></trkpt><trkpt lat="43.759315" lon="11.1781115"><ele>42.0</ele><time>2026-04-27T11:40:29.513Z</time></trkpt><trkpt lat="43.7592799" lon="11.1781922"><ele>42.0</ele><time>2026-04-27T11:40:33.425Z</time></trkpt><trkpt lat="43.7592418" lon="11.1782731"><ele>42.0</ele><time>2026-04-27T11:40:36.47Z</time></trkpt><trkpt lat="43.7591982" lon="11.1783521"><ele>42.285714285714285</ele><time>2026-04-27T11:40:40.492Z</time></trkpt><trkpt lat="43.7591646" lon="11.1784323"><ele>42.57142857142857</ele><time>2026-04-27T11:40:45.333Z</time></trkpt><trkpt lat="43.7591253" lon="11.1785264"><ele>42.85714285714286</ele><time>2026-04-27T11:40:50.493Z</time></trkpt><trkpt lat="43.7590887" lon="11.1786081"><ele>43.14285714285714</ele><time>2026-04-27T11:40:54.41Z</time></trkpt><trkpt lat="43.7590517" lon="11.178694"><ele>43.42857142857143</ele><time>2026-04-27T11:40:59.41Z</time></trkpt><trkpt lat="43.7590133" lon="11.1787768"><ele>43.714285714285715</ele><time>2026-04-27T11:41:04.41Z</time></trkpt><trkpt lat="43.7589785" lon="11.1788546"><ele>44.0</ele><time>2026-04-27T11:41:09.41Z</time></trkpt><trkpt lat="43.7589452" lon="11.1789348"><ele>44.0</ele><time>2026-04-27T11:41:13.432Z</time></trkpt><trkpt lat="43.7589049" lon="11.179017"><ele>44.0</ele><time>2026-04-27T11:41:18.433Z</time></trkpt><trkpt lat="43.7588678" lon="11.1790889"><ele>44.0</ele><time>2026-04-27T11:41:23.434Z</time></trkpt><trkpt lat="43.7588246" lon="11.1791736"><ele>44.0</ele><time>2026-04-27T11:41:28.435Z</time></trkpt><trkpt lat="43.7587893" lon="11.1792573"><ele>44.0</ele><time>2026-04-27T11:41:33.435Z</time></trkpt><trkpt lat="43.7587539" lon="11.1793329"><ele>44.0</ele><time>2026-04-27T11:41:38.436Z</time></trkpt><trkpt lat="43.7587166" lon="11.1794131"><ele>44.0</ele><time>2026-04-27T11:41:43.438Z</time></trkpt><trkpt lat="43.7586865" lon="11.1794934"><ele>44.0</ele><time>2026-04-27T11:41:48.438Z</time></trkpt><trkpt lat="43.7586469" lon="11.1795807"><ele>44.0</ele><time>2026-04-27T11:41:54.376Z</time></trkpt><trkpt lat="43.7586092" lon="11.1796574"><ele>44.0</ele><time>2026-04-27T11:41:58.44Z</time></trkpt><trkpt lat="43.7585595" lon="11.1797582"><ele>44.0</ele><time>2026-04-27T11:42:05.502Z</time></trkpt><trkpt lat="43.7585197" lon="11.1798263"><ele>44.0</ele><time>2026-04-27T11:42:10.41Z</time></trkpt><trkpt lat="43.7584848" lon="11.1799053"><ele>44.0</ele><time>2026-04-27T11:42:16.482Z</time></trkpt><trkpt lat="43.7584964" lon="11.1799928"><ele>44.0</ele><time>2026-04-27T11:42:23.44Z</time></trkpt><trkpt lat="43.7584738" lon="11.1800814"><ele>44.0</ele><time>2026-04-27T11:42:31.485Z</time></trkpt><trkpt lat="43.7584417" lon="11.1801637"><ele>44.0</ele><time>2026-04-27T11:42:38.443Z</time></trkpt><trkpt lat="43.7584253" lon="11.1802579"><ele>44.0</ele><time>2026-04-27T11:42:44.212Z</time></trkpt><trkpt lat="43.758382" lon="11.1803344"><ele>44.0</ele><time>2026-04-27T11:42:49.455Z</time></trkpt><trkpt lat="43.7583345" lon="11.1804156"><ele>44.0</ele><time>2026-04-27T11:42:55.411Z</time></trkpt><trkpt lat="43.7582839" lon="11.1804816"><ele>44.0</ele><time>2026-04-27T11:43:00.293Z</time></trkpt><trkpt lat="43.7582162" lon="11.180474"><ele>44.0</ele><time>2026-04-27T11:43:03.448Z</time></trkpt><trkpt lat="43.7581705" lon="11.1805413"><ele>44.0</ele><time>2026-04-27T11:43:08.413Z</time></trkpt><trkpt lat="43.7580946" lon="11.1805188"><ele>44.0</ele><time>2026-04-27T11:43:14.429Z</time></trkpt><trkpt lat="43.7580353" lon="11.1804755"><ele>44.0</ele><time>2026-04-27T11:43:18.451Z</time></trkpt><trkpt lat="43.7579621" lon="11.1804276"><ele>44.0</ele><time>2026-04-27T11:43:22.475Z</time></trkpt><trkpt lat="43.7578977" lon="11.1804642"><ele>44.0</ele><time>2026-04-27T11:43:28.453Z</time></trkpt><trkpt lat="43.7578339" lon="11.1805286"><ele>44.0</ele><time>2026-04-27T11:43:33.455Z</time></trkpt><trkpt lat="43.757773" lon="11.1805774"><ele>44.0</ele><time>2026-04-27T11:43:37.477Z</time></trkpt><trkpt lat="43.7578201" lon="11.1805182"><ele>44.0</ele><time>2026-04-27T11:44:12.735Z</time></trkpt><trkpt lat="43.7577542" lon="11.1805526"><ele>44.0</ele><time>2026-04-27T11:44:22.056Z</time></trkpt><trkpt lat="43.7576884" lon="11.1805286"><ele>44.0</ele><time>2026-04-27T11:44:27.984Z</time></trkpt><trkpt lat="43.7576063" lon="11.1805829"><ele>44.0</ele><time>2026-04-27T11:44:30.412Z</time></trkpt><trkpt lat="43.7574957" lon="11.1806731"><ele>44.0</ele><time>2026-04-27T11:44:54.126Z</time></trkpt><trkpt lat="43.7574805" lon="11.1807621"><ele>44.0</ele><time>2026-04-27T11:45:48.993Z</time></trkpt><trkpt lat="43.757447" lon="11.1806784"><ele>43.85714285714286</ele><time>2026-04-27T11:46:30.453Z</time></trkpt><trkpt lat="43.7573744" lon="11.1806535"><ele>43.714285714285715</ele><time>2026-04-27T11:46:36.176Z</time></trkpt><trkpt lat="43.7573129" lon="11.1806127"><ele>43.57142857142857</ele><time>2026-04-27T11:46:40.792Z</time></trkpt><trkpt lat="43.7572578" lon="11.1805534"><ele>43.42857142857143</ele><time>2026-04-27T11:46:46.534Z</time></trkpt><trkpt lat="43.7573246" lon="11.1805129"><ele>43.285714285714285</ele><time>2026-04-27T11:53:19.732Z</time></trkpt><trkpt lat="43.7573776" lon="11.1805775"><ele>43.142857142857146</ele><time>2026-04-27T11:53:29.299Z</time></trkpt><trkpt lat="43.7574148" lon="11.1806544"><ele>43.0</ele><time>2026-04-27T11:53:43.252Z</time></trkpt><trkpt lat="43.7574594" lon="11.1807196"><ele>45.0</ele><time>2026-04-27T11:53:48.694Z</time></trkpt></trkseg></trk></gpx>